<?xml version="1.0" encoding="UTF-8" standalone="no" ?>
<gpx xmlns="http://www.topografix.com/GPX/1/1" xmlns:xsi="http://www.w3.org/2001/XMLSchema-instance" xsi:schemaLocation="http://www.topografix.com/GPX/1/1 http://www.topografix.com/GPX/1/1/gpx.xsd" version="1.1" creator="VisuGPX - https://www.visugpx.com">
  <metadata>
    <name>Bugeac octobre 2015</name>
    <desc><![CDATA[Belle rando autour de Bugeac]]></desc>
  </metadata>
  <trk>
    <name><![CDATA[2015-10-17 15:21:05]]></name>
    <trkseg>
      <trkpt lat="44.91217" lon="3.45452">
        <ele>1199.38</ele>
        <time>2015-10-17T08:55:49Z</time>
      </trkpt>
      <trkpt lat="44.91217" lon="3.45452">
        <ele>1199.38</ele>
        <time>2015-10-17T08:55:50Z</time>
      </trkpt>
      <trkpt lat="44.91217" lon="3.45452">
        <ele>1174.87</ele>
        <time>2015-10-17T08:55:53Z</time>
      </trkpt>
      <trkpt lat="44.91217" lon="3.45452">
        <ele>1174.87</ele>
        <time>2015-10-17T08:55:54Z</time>
      </trkpt>
      <trkpt lat="44.91219" lon="3.4545">
        <ele>1175.35</ele>
        <time>2015-10-17T08:56:18Z</time>
      </trkpt>
      <trkpt lat="44.9122" lon="3.45448">
        <ele>1173.91</ele>
        <time>2015-10-17T08:56:35Z</time>
      </trkpt>
      <trkpt lat="44.91216" lon="3.45449">
        <ele>1173.91</ele>
        <time>2015-10-17T08:56:51Z</time>
      </trkpt>
      <trkpt lat="44.91211" lon="3.45445">
        <ele>1173.91</ele>
        <time>2015-10-17T08:57:09Z</time>
      </trkpt>
      <trkpt lat="44.91211" lon="3.45448">
        <ele>1173.91</ele>
        <time>2015-10-17T08:57:39Z</time>
      </trkpt>
      <trkpt lat="44.91212" lon="3.45448">
        <ele>1173.91</ele>
        <time>2015-10-17T08:57:57Z</time>
      </trkpt>
      <trkpt lat="44.91212" lon="3.45445">
        <ele>1173.91</ele>
        <time>2015-10-17T08:58:18Z</time>
      </trkpt>
      <trkpt lat="44.9121" lon="3.45446">
        <ele>1173.91</ele>
        <time>2015-10-17T08:58:42Z</time>
      </trkpt>
      <trkpt lat="44.91211" lon="3.45441">
        <ele>1174.87</ele>
        <time>2015-10-17T08:59:07Z</time>
      </trkpt>
      <trkpt lat="44.91213" lon="3.45419">
        <ele>1177.27</ele>
        <time>2015-10-17T08:59:25Z</time>
      </trkpt>
      <trkpt lat="44.91216" lon="3.45394">
        <ele>1178.71</ele>
        <time>2015-10-17T08:59:44Z</time>
      </trkpt>
      <trkpt lat="44.91216" lon="3.45393">
        <ele>1178.71</ele>
        <time>2015-10-17T08:59:45Z</time>
      </trkpt>
      <trkpt lat="44.91216" lon="3.45368">
        <ele>1181.12</ele>
        <time>2015-10-17T09:00:05Z</time>
      </trkpt>
      <trkpt lat="44.91216" lon="3.45344">
        <ele>1183.52</ele>
        <time>2015-10-17T09:00:25Z</time>
      </trkpt>
      <trkpt lat="44.91211" lon="3.45322">
        <ele>1185.92</ele>
        <time>2015-10-17T09:00:43Z</time>
      </trkpt>
      <trkpt lat="44.91202" lon="3.453">
        <ele>1187.85</ele>
        <time>2015-10-17T09:01:03Z</time>
      </trkpt>
      <trkpt lat="44.91193" lon="3.45279">
        <ele>1189.77</ele>
        <time>2015-10-17T09:01:22Z</time>
      </trkpt>
      <trkpt lat="44.91189" lon="3.45268">
        <ele>1191.21</ele>
        <time>2015-10-17T09:01:39Z</time>
      </trkpt>
      <trkpt lat="44.91185" lon="3.45259">
        <ele>1192.17</ele>
        <time>2015-10-17T09:01:53Z</time>
      </trkpt>
      <trkpt lat="44.91176" lon="3.45239">
        <ele>1193.13</ele>
        <time>2015-10-17T09:02:10Z</time>
      </trkpt>
      <trkpt lat="44.91168" lon="3.45217">
        <ele>1195.06</ele>
        <time>2015-10-17T09:02:28Z</time>
      </trkpt>
      <trkpt lat="44.91171" lon="3.45199">
        <ele>1197.94</ele>
        <time>2015-10-17T09:02:48Z</time>
      </trkpt>
      <trkpt lat="44.9118" lon="3.45205">
        <ele>1199.38</ele>
        <time>2015-10-17T09:03:00Z</time>
      </trkpt>
      <trkpt lat="44.91194" lon="3.45218">
        <ele>1200.82</ele>
        <time>2015-10-17T09:03:18Z</time>
      </trkpt>
      <trkpt lat="44.91205" lon="3.45231">
        <ele>1203.23</ele>
        <time>2015-10-17T09:03:35Z</time>
      </trkpt>
      <trkpt lat="44.91211" lon="3.45238">
        <ele>1204.19</ele>
        <time>2015-10-17T09:03:43Z</time>
      </trkpt>
      <trkpt lat="44.91226" lon="3.45254">
        <ele>1206.11</ele>
        <time>2015-10-17T09:04:02Z</time>
      </trkpt>
      <trkpt lat="44.91238" lon="3.45269">
        <ele>1207.55</ele>
        <time>2015-10-17T09:04:19Z</time>
      </trkpt>
      <trkpt lat="44.91253" lon="3.45283">
        <ele>1208.51</ele>
        <time>2015-10-17T09:04:38Z</time>
      </trkpt>
      <trkpt lat="44.91257" lon="3.45285">
        <ele>1209</ele>
        <time>2015-10-17T09:04:53Z</time>
      </trkpt>
      <trkpt lat="44.91257" lon="3.45285">
        <ele>1209</ele>
        <time>2015-10-17T09:05:16Z</time>
      </trkpt>
      <trkpt lat="44.91258" lon="3.45284">
        <ele>1208.51</ele>
        <time>2015-10-17T09:05:50Z</time>
      </trkpt>
      <trkpt lat="44.91266" lon="3.4529">
        <ele>1208.51</ele>
        <time>2015-10-17T09:06:05Z</time>
      </trkpt>
      <trkpt lat="44.91273" lon="3.4529">
        <ele>1209.48</ele>
        <time>2015-10-17T09:06:21Z</time>
      </trkpt>
      <trkpt lat="44.91272" lon="3.45293">
        <ele>1209.48</ele>
        <time>2015-10-17T09:06:33Z</time>
      </trkpt>
      <trkpt lat="44.91281" lon="3.45289">
        <ele>1209.96</ele>
        <time>2015-10-17T09:06:45Z</time>
      </trkpt>
      <trkpt lat="44.91285" lon="3.45284">
        <ele>1210.44</ele>
        <time>2015-10-17T09:06:58Z</time>
      </trkpt>
      <trkpt lat="44.91284" lon="3.45276">
        <ele>1211.4</ele>
        <time>2015-10-17T09:07:14Z</time>
      </trkpt>
      <trkpt lat="44.91277" lon="3.4526">
        <ele>1212.36</ele>
        <time>2015-10-17T09:07:29Z</time>
      </trkpt>
      <trkpt lat="44.9127" lon="3.45246">
        <ele>1213.32</ele>
        <time>2015-10-17T09:07:45Z</time>
      </trkpt>
      <trkpt lat="44.91274" lon="3.45231">
        <ele>1215.72</ele>
        <time>2015-10-17T09:08:03Z</time>
      </trkpt>
      <trkpt lat="44.91289" lon="3.45235">
        <ele>1217.17</ele>
        <time>2015-10-17T09:08:20Z</time>
      </trkpt>
      <trkpt lat="44.91304" lon="3.45238">
        <ele>1218.61</ele>
        <time>2015-10-17T09:08:38Z</time>
      </trkpt>
      <trkpt lat="44.91312" lon="3.45233">
        <ele>1219.57</ele>
        <time>2015-10-17T09:08:53Z</time>
      </trkpt>
      <trkpt lat="44.91315" lon="3.45222">
        <ele>1220.05</ele>
        <time>2015-10-17T09:09:16Z</time>
      </trkpt>
      <trkpt lat="44.91316" lon="3.45216">
        <ele>1220.53</ele>
        <time>2015-10-17T09:09:29Z</time>
      </trkpt>
      <trkpt lat="44.91315" lon="3.45216">
        <ele>1220.53</ele>
        <time>2015-10-17T09:09:51Z</time>
      </trkpt>
      <trkpt lat="44.91315" lon="3.45214">
        <ele>1220.53</ele>
        <time>2015-10-17T09:09:54Z</time>
      </trkpt>
      <trkpt lat="44.91305" lon="3.45189">
        <ele>1222.45</ele>
        <time>2015-10-17T09:10:15Z</time>
      </trkpt>
      <trkpt lat="44.91303" lon="3.45185">
        <ele>1222.93</ele>
        <time>2015-10-17T09:10:19Z</time>
      </trkpt>
      <trkpt lat="44.91296" lon="3.4516">
        <ele>1223.9</ele>
        <time>2015-10-17T09:10:39Z</time>
      </trkpt>
      <trkpt lat="44.91296" lon="3.45139">
        <ele>1224.86</ele>
        <time>2015-10-17T09:10:57Z</time>
      </trkpt>
      <trkpt lat="44.91295" lon="3.45119">
        <ele>1225.34</ele>
        <time>2015-10-17T09:11:13Z</time>
      </trkpt>
      <trkpt lat="44.91291" lon="3.45098">
        <ele>1226.3</ele>
        <time>2015-10-17T09:11:29Z</time>
      </trkpt>
      <trkpt lat="44.91297" lon="3.45091">
        <ele>1226.78</ele>
        <time>2015-10-17T09:11:41Z</time>
      </trkpt>
      <trkpt lat="44.9131" lon="3.45088">
        <ele>1227.26</ele>
        <time>2015-10-17T09:11:57Z</time>
      </trkpt>
      <trkpt lat="44.91323" lon="3.45085">
        <ele>1228.22</ele>
        <time>2015-10-17T09:12:12Z</time>
      </trkpt>
      <trkpt lat="44.91326" lon="3.45085">
        <ele>1228.7</ele>
        <time>2015-10-17T09:12:16Z</time>
      </trkpt>
      <trkpt lat="44.91329" lon="3.45085">
        <ele>1228.7</ele>
        <time>2015-10-17T09:12:19Z</time>
      </trkpt>
      <trkpt lat="44.91348" lon="3.45075">
        <ele>1229.66</ele>
        <time>2015-10-17T09:12:40Z</time>
      </trkpt>
      <trkpt lat="44.91365" lon="3.45064">
        <ele>1230.14</ele>
        <time>2015-10-17T09:13:00Z</time>
      </trkpt>
      <trkpt lat="44.9138" lon="3.45058">
        <ele>1231.59</ele>
        <time>2015-10-17T09:13:18Z</time>
      </trkpt>
      <trkpt lat="44.91383" lon="3.4505">
        <ele>1231.59</ele>
        <time>2015-10-17T09:13:25Z</time>
      </trkpt>
      <trkpt lat="44.91382" lon="3.45026">
        <ele>1232.07</ele>
        <time>2015-10-17T09:13:43Z</time>
      </trkpt>
      <trkpt lat="44.91381" lon="3.45005">
        <ele>1233.51</ele>
        <time>2015-10-17T09:14:00Z</time>
      </trkpt>
      <trkpt lat="44.9138" lon="3.44982">
        <ele>1235.43</ele>
        <time>2015-10-17T09:14:18Z</time>
      </trkpt>
      <trkpt lat="44.91379" lon="3.44959">
        <ele>1236.87</ele>
        <time>2015-10-17T09:14:37Z</time>
      </trkpt>
      <trkpt lat="44.91378" lon="3.44939">
        <ele>1238.8</ele>
        <time>2015-10-17T09:14:54Z</time>
      </trkpt>
      <trkpt lat="44.91379" lon="3.44918">
        <ele>1240.24</ele>
        <time>2015-10-17T09:15:12Z</time>
      </trkpt>
      <trkpt lat="44.91386" lon="3.44909">
        <ele>1241.68</ele>
        <time>2015-10-17T09:15:27Z</time>
      </trkpt>
      <trkpt lat="44.91386" lon="3.44911">
        <ele>1241.68</ele>
        <time>2015-10-17T09:15:45Z</time>
      </trkpt>
      <trkpt lat="44.91385" lon="3.44909">
        <ele>1240.72</ele>
        <time>2015-10-17T09:16:16Z</time>
      </trkpt>
      <trkpt lat="44.91385" lon="3.44907">
        <ele>1240.72</ele>
        <time>2015-10-17T09:16:35Z</time>
      </trkpt>
      <trkpt lat="44.91387" lon="3.44907">
        <ele>1240.72</ele>
        <time>2015-10-17T09:17:12Z</time>
      </trkpt>
      <trkpt lat="44.91387" lon="3.44908">
        <ele>1240.72</ele>
        <time>2015-10-17T09:17:43Z</time>
      </trkpt>
      <trkpt lat="44.91398" lon="3.44906">
        <ele>1240.72</ele>
        <time>2015-10-17T09:18:03Z</time>
      </trkpt>
      <trkpt lat="44.91419" lon="3.44899">
        <ele>1241.68</ele>
        <time>2015-10-17T09:18:27Z</time>
      </trkpt>
      <trkpt lat="44.91441" lon="3.44888">
        <ele>1242.16</ele>
        <time>2015-10-17T09:18:51Z</time>
      </trkpt>
      <trkpt lat="44.91461" lon="3.44882">
        <ele>1242.16</ele>
        <time>2015-10-17T09:19:12Z</time>
      </trkpt>
      <trkpt lat="44.91463" lon="3.44882">
        <ele>1242.16</ele>
        <time>2015-10-17T09:19:14Z</time>
      </trkpt>
      <trkpt lat="44.91487" lon="3.44877">
        <ele>1241.68</ele>
        <time>2015-10-17T09:19:37Z</time>
      </trkpt>
      <trkpt lat="44.91508" lon="3.44873">
        <ele>1240.72</ele>
        <time>2015-10-17T09:19:59Z</time>
      </trkpt>
      <trkpt lat="44.91526" lon="3.44873">
        <ele>1240.24</ele>
        <time>2015-10-17T09:20:18Z</time>
      </trkpt>
      <trkpt lat="44.91527" lon="3.44873">
        <ele>1240.24</ele>
        <time>2015-10-17T09:20:19Z</time>
      </trkpt>
      <trkpt lat="44.91543" lon="3.44865">
        <ele>1241.2</ele>
        <time>2015-10-17T09:20:41Z</time>
      </trkpt>
      <trkpt lat="44.91552" lon="3.44855">
        <ele>1242.64</ele>
        <time>2015-10-17T09:21:06Z</time>
      </trkpt>
      <trkpt lat="44.91548" lon="3.44846">
        <ele>1242.64</ele>
        <time>2015-10-17T09:21:29Z</time>
      </trkpt>
      <trkpt lat="44.91547" lon="3.44833">
        <ele>1245.53</ele>
        <time>2015-10-17T09:21:44Z</time>
      </trkpt>
      <trkpt lat="44.91547" lon="3.44811">
        <ele>1246.97</ele>
        <time>2015-10-17T09:22:02Z</time>
      </trkpt>
      <trkpt lat="44.91551" lon="3.44791">
        <ele>1249.37</ele>
        <time>2015-10-17T09:22:22Z</time>
      </trkpt>
      <trkpt lat="44.91555" lon="3.44772">
        <ele>1250.81</ele>
        <time>2015-10-17T09:22:39Z</time>
      </trkpt>
      <trkpt lat="44.91564" lon="3.44755">
        <ele>1252.25</ele>
        <time>2015-10-17T09:22:58Z</time>
      </trkpt>
      <trkpt lat="44.91569" lon="3.44737">
        <ele>1254.66</ele>
        <time>2015-10-17T09:23:20Z</time>
      </trkpt>
      <trkpt lat="44.91584" lon="3.44726">
        <ele>1254.66</ele>
        <time>2015-10-17T09:23:39Z</time>
      </trkpt>
      <trkpt lat="44.91596" lon="3.44713">
        <ele>1255.14</ele>
        <time>2015-10-17T09:23:57Z</time>
      </trkpt>
      <trkpt lat="44.91607" lon="3.44703">
        <ele>1256.1</ele>
        <time>2015-10-17T09:24:14Z</time>
      </trkpt>
      <trkpt lat="44.9162" lon="3.44683">
        <ele>1256.58</ele>
        <time>2015-10-17T09:24:34Z</time>
      </trkpt>
      <trkpt lat="44.91628" lon="3.44666">
        <ele>1256.58</ele>
        <time>2015-10-17T09:24:52Z</time>
      </trkpt>
      <trkpt lat="44.9164" lon="3.44648">
        <ele>1256.58</ele>
        <time>2015-10-17T09:25:12Z</time>
      </trkpt>
      <trkpt lat="44.9165" lon="3.44631">
        <ele>1256.58</ele>
        <time>2015-10-17T09:25:31Z</time>
      </trkpt>
      <trkpt lat="44.91663" lon="3.44608">
        <ele>1257.54</ele>
        <time>2015-10-17T09:25:52Z</time>
      </trkpt>
      <trkpt lat="44.91667" lon="3.4459">
        <ele>1258.98</ele>
        <time>2015-10-17T09:26:10Z</time>
      </trkpt>
      <trkpt lat="44.91674" lon="3.44574">
        <ele>1260.43</ele>
        <time>2015-10-17T09:26:26Z</time>
      </trkpt>
      <trkpt lat="44.91683" lon="3.4456">
        <ele>1261.87</ele>
        <time>2015-10-17T09:26:43Z</time>
      </trkpt>
      <trkpt lat="44.91694" lon="3.44553">
        <ele>1262.35</ele>
        <time>2015-10-17T09:27:01Z</time>
      </trkpt>
      <trkpt lat="44.91689" lon="3.44551">
        <ele>1261.87</ele>
        <time>2015-10-17T09:27:21Z</time>
      </trkpt>
      <trkpt lat="44.91693" lon="3.44551">
        <ele>1261.87</ele>
        <time>2015-10-17T09:27:43Z</time>
      </trkpt>
      <trkpt lat="44.91699" lon="3.44552">
        <ele>1262.35</ele>
        <time>2015-10-17T09:28:03Z</time>
      </trkpt>
      <trkpt lat="44.91709" lon="3.44559">
        <ele>1262.35</ele>
        <time>2015-10-17T09:28:36Z</time>
      </trkpt>
      <trkpt lat="44.91697" lon="3.44555">
        <ele>1262.35</ele>
        <time>2015-10-17T09:28:54Z</time>
      </trkpt>
      <trkpt lat="44.91699" lon="3.44547">
        <ele>1262.35</ele>
        <time>2015-10-17T09:29:18Z</time>
      </trkpt>
      <trkpt lat="44.917" lon="3.44535">
        <ele>1262.35</ele>
        <time>2015-10-17T09:30:06Z</time>
      </trkpt>
      <trkpt lat="44.91707" lon="3.4454">
        <ele>1261.87</ele>
        <time>2015-10-17T09:30:33Z</time>
      </trkpt>
      <trkpt lat="44.91719" lon="3.44536">
        <ele>1261.87</ele>
        <time>2015-10-17T09:30:53Z</time>
      </trkpt>
      <trkpt lat="44.9173" lon="3.44528">
        <ele>1262.35</ele>
        <time>2015-10-17T09:31:11Z</time>
      </trkpt>
      <trkpt lat="44.91741" lon="3.44524">
        <ele>1262.83</ele>
        <time>2015-10-17T09:31:25Z</time>
      </trkpt>
      <trkpt lat="44.9175" lon="3.44519">
        <ele>1262.83</ele>
        <time>2015-10-17T09:31:41Z</time>
      </trkpt>
      <trkpt lat="44.91753" lon="3.44517">
        <ele>1262.83</ele>
        <time>2015-10-17T09:32:01Z</time>
      </trkpt>
      <trkpt lat="44.91767" lon="3.44515">
        <ele>1262.83</ele>
        <time>2015-10-17T09:32:18Z</time>
      </trkpt>
      <trkpt lat="44.91786" lon="3.44509">
        <ele>1262.83</ele>
        <time>2015-10-17T09:32:34Z</time>
      </trkpt>
      <trkpt lat="44.91799" lon="3.44502">
        <ele>1264.27</ele>
        <time>2015-10-17T09:32:49Z</time>
      </trkpt>
      <trkpt lat="44.91814" lon="3.44498">
        <ele>1265.23</ele>
        <time>2015-10-17T09:33:05Z</time>
      </trkpt>
      <trkpt lat="44.91824" lon="3.4449">
        <ele>1266.19</ele>
        <time>2015-10-17T09:33:25Z</time>
      </trkpt>
      <trkpt lat="44.91837" lon="3.44477">
        <ele>1267.16</ele>
        <time>2015-10-17T09:33:40Z</time>
      </trkpt>
      <trkpt lat="44.91846" lon="3.44466">
        <ele>1268.12</ele>
        <time>2015-10-17T09:33:56Z</time>
      </trkpt>
      <trkpt lat="44.91853" lon="3.44457">
        <ele>1268.6</ele>
        <time>2015-10-17T09:34:13Z</time>
      </trkpt>
      <trkpt lat="44.91856" lon="3.4445">
        <ele>1268.6</ele>
        <time>2015-10-17T09:34:27Z</time>
      </trkpt>
      <trkpt lat="44.91857" lon="3.44436">
        <ele>1270.52</ele>
        <time>2015-10-17T09:34:45Z</time>
      </trkpt>
      <trkpt lat="44.91857" lon="3.44417">
        <ele>1271.96</ele>
        <time>2015-10-17T09:35:04Z</time>
      </trkpt>
      <trkpt lat="44.91857" lon="3.4441">
        <ele>1273.88</ele>
        <time>2015-10-17T09:35:14Z</time>
      </trkpt>
      <trkpt lat="44.91856" lon="3.4441">
        <ele>1272.44</ele>
        <time>2015-10-17T09:35:16Z</time>
      </trkpt>
      <trkpt lat="44.91855" lon="3.44407">
        <ele>1272.44</ele>
        <time>2015-10-17T09:35:48Z</time>
      </trkpt>
      <trkpt lat="44.91862" lon="3.4441">
        <ele>1272.44</ele>
        <time>2015-10-17T09:36:04Z</time>
      </trkpt>
      <trkpt lat="44.91872" lon="3.44411">
        <ele>1271.96</ele>
        <time>2015-10-17T09:36:23Z</time>
      </trkpt>
      <trkpt lat="44.91887" lon="3.44408">
        <ele>1271</ele>
        <time>2015-10-17T09:36:43Z</time>
      </trkpt>
      <trkpt lat="44.919" lon="3.44408">
        <ele>1270.52</ele>
        <time>2015-10-17T09:36:58Z</time>
      </trkpt>
      <trkpt lat="44.91913" lon="3.44401">
        <ele>1269.56</ele>
        <time>2015-10-17T09:37:18Z</time>
      </trkpt>
      <trkpt lat="44.91925" lon="3.44389">
        <ele>1268.6</ele>
        <time>2015-10-17T09:37:36Z</time>
      </trkpt>
      <trkpt lat="44.91932" lon="3.44379">
        <ele>1268.12</ele>
        <time>2015-10-17T09:37:55Z</time>
      </trkpt>
      <trkpt lat="44.91937" lon="3.44361">
        <ele>1267.16</ele>
        <time>2015-10-17T09:38:17Z</time>
      </trkpt>
      <trkpt lat="44.9194" lon="3.44347">
        <ele>1266.67</ele>
        <time>2015-10-17T09:38:33Z</time>
      </trkpt>
      <trkpt lat="44.91945" lon="3.44331">
        <ele>1266.19</ele>
        <time>2015-10-17T09:38:50Z</time>
      </trkpt>
      <trkpt lat="44.91953" lon="3.44309">
        <ele>1265.71</ele>
        <time>2015-10-17T09:39:10Z</time>
      </trkpt>
      <trkpt lat="44.91958" lon="3.44296">
        <ele>1264.75</ele>
        <time>2015-10-17T09:39:24Z</time>
      </trkpt>
      <trkpt lat="44.91958" lon="3.4428">
        <ele>1264.27</ele>
        <time>2015-10-17T09:39:40Z</time>
      </trkpt>
      <trkpt lat="44.91963" lon="3.44263">
        <ele>1263.31</ele>
        <time>2015-10-17T09:39:56Z</time>
      </trkpt>
      <trkpt lat="44.9197" lon="3.44241">
        <ele>1262.83</ele>
        <time>2015-10-17T09:40:13Z</time>
      </trkpt>
      <trkpt lat="44.91976" lon="3.44224">
        <ele>1262.83</ele>
        <time>2015-10-17T09:40:28Z</time>
      </trkpt>
      <trkpt lat="44.91982" lon="3.44211">
        <ele>1262.35</ele>
        <time>2015-10-17T09:40:43Z</time>
      </trkpt>
      <trkpt lat="44.91985" lon="3.44193">
        <ele>1261.87</ele>
        <time>2015-10-17T09:40:59Z</time>
      </trkpt>
      <trkpt lat="44.91985" lon="3.44188">
        <ele>1263.31</ele>
        <time>2015-10-17T09:41:12Z</time>
      </trkpt>
      <trkpt lat="44.91985" lon="3.44181">
        <ele>1263.31</ele>
        <time>2015-10-17T09:41:26Z</time>
      </trkpt>
      <trkpt lat="44.91982" lon="3.44165">
        <ele>1264.27</ele>
        <time>2015-10-17T09:41:40Z</time>
      </trkpt>
      <trkpt lat="44.91985" lon="3.44149">
        <ele>1264.75</ele>
        <time>2015-10-17T09:41:54Z</time>
      </trkpt>
      <trkpt lat="44.91987" lon="3.44132">
        <ele>1265.23</ele>
        <time>2015-10-17T09:42:08Z</time>
      </trkpt>
      <trkpt lat="44.91988" lon="3.44116">
        <ele>1265.23</ele>
        <time>2015-10-17T09:42:22Z</time>
      </trkpt>
      <trkpt lat="44.91992" lon="3.44097">
        <ele>1266.67</ele>
        <time>2015-10-17T09:42:40Z</time>
      </trkpt>
      <trkpt lat="44.91996" lon="3.44079">
        <ele>1267.16</ele>
        <time>2015-10-17T09:42:56Z</time>
      </trkpt>
      <trkpt lat="44.91999" lon="3.44059">
        <ele>1267.64</ele>
        <time>2015-10-17T09:43:12Z</time>
      </trkpt>
      <trkpt lat="44.92002" lon="3.44043">
        <ele>1268.12</ele>
        <time>2015-10-17T09:43:24Z</time>
      </trkpt>
      <trkpt lat="44.92007" lon="3.44027">
        <ele>1269.08</ele>
        <time>2015-10-17T09:43:38Z</time>
      </trkpt>
      <trkpt lat="44.9201" lon="3.44012">
        <ele>1269.56</ele>
        <time>2015-10-17T09:43:55Z</time>
      </trkpt>
      <trkpt lat="44.92012" lon="3.43997">
        <ele>1270.52</ele>
        <time>2015-10-17T09:44:09Z</time>
      </trkpt>
      <trkpt lat="44.92013" lon="3.43981">
        <ele>1271.48</ele>
        <time>2015-10-17T09:44:24Z</time>
      </trkpt>
      <trkpt lat="44.92016" lon="3.43963">
        <ele>1271.96</ele>
        <time>2015-10-17T09:44:40Z</time>
      </trkpt>
      <trkpt lat="44.92018" lon="3.4395">
        <ele>1272.44</ele>
        <time>2015-10-17T09:44:54Z</time>
      </trkpt>
      <trkpt lat="44.92021" lon="3.43931">
        <ele>1272.92</ele>
        <time>2015-10-17T09:45:12Z</time>
      </trkpt>
      <trkpt lat="44.92022" lon="3.43914">
        <ele>1273.88</ele>
        <time>2015-10-17T09:45:27Z</time>
      </trkpt>
      <trkpt lat="44.92023" lon="3.43895">
        <ele>1274.36</ele>
        <time>2015-10-17T09:45:43Z</time>
      </trkpt>
      <trkpt lat="44.92026" lon="3.43877">
        <ele>1275.33</ele>
        <time>2015-10-17T09:45:57Z</time>
      </trkpt>
      <trkpt lat="44.92031" lon="3.43857">
        <ele>1275.33</ele>
        <time>2015-10-17T09:46:15Z</time>
      </trkpt>
      <trkpt lat="44.92036" lon="3.43841">
        <ele>1275.81</ele>
        <time>2015-10-17T09:46:32Z</time>
      </trkpt>
      <trkpt lat="44.92039" lon="3.43824">
        <ele>1276.29</ele>
        <time>2015-10-17T09:46:46Z</time>
      </trkpt>
      <trkpt lat="44.92044" lon="3.43806">
        <ele>1276.77</ele>
        <time>2015-10-17T09:47:00Z</time>
      </trkpt>
      <trkpt lat="44.92049" lon="3.43786">
        <ele>1277.25</ele>
        <time>2015-10-17T09:47:17Z</time>
      </trkpt>
      <trkpt lat="44.92051" lon="3.43769">
        <ele>1278.21</ele>
        <time>2015-10-17T09:47:31Z</time>
      </trkpt>
      <trkpt lat="44.9205" lon="3.43757">
        <ele>1278.21</ele>
        <time>2015-10-17T09:47:49Z</time>
      </trkpt>
      <trkpt lat="44.92052" lon="3.43748">
        <ele>1278.21</ele>
        <time>2015-10-17T09:48:05Z</time>
      </trkpt>
      <trkpt lat="44.92054" lon="3.43744">
        <ele>1278.69</ele>
        <time>2015-10-17T09:48:30Z</time>
      </trkpt>
      <trkpt lat="44.92057" lon="3.43747">
        <ele>1278.69</ele>
        <time>2015-10-17T09:48:55Z</time>
      </trkpt>
      <trkpt lat="44.92058" lon="3.43746">
        <ele>1278.69</ele>
        <time>2015-10-17T09:49:22Z</time>
      </trkpt>
      <trkpt lat="44.92057" lon="3.43746">
        <ele>1278.69</ele>
        <time>2015-10-17T09:49:48Z</time>
      </trkpt>
      <trkpt lat="44.92055" lon="3.43748">
        <ele>1278.69</ele>
        <time>2015-10-17T09:50:11Z</time>
      </trkpt>
      <trkpt lat="44.92055" lon="3.43739">
        <ele>1278.69</ele>
        <time>2015-10-17T09:50:33Z</time>
      </trkpt>
      <trkpt lat="44.92051" lon="3.43722">
        <ele>1279.17</ele>
        <time>2015-10-17T09:50:50Z</time>
      </trkpt>
      <trkpt lat="44.92045" lon="3.4371">
        <ele>1279.65</ele>
        <time>2015-10-17T09:51:09Z</time>
      </trkpt>
      <trkpt lat="44.92041" lon="3.43691">
        <ele>1280.13</ele>
        <time>2015-10-17T09:51:26Z</time>
      </trkpt>
      <trkpt lat="44.92036" lon="3.43679">
        <ele>1280.61</ele>
        <time>2015-10-17T09:51:44Z</time>
      </trkpt>
      <trkpt lat="44.92027" lon="3.43664">
        <ele>1281.09</ele>
        <time>2015-10-17T09:52:02Z</time>
      </trkpt>
      <trkpt lat="44.92017" lon="3.4365">
        <ele>1281.09</ele>
        <time>2015-10-17T09:52:20Z</time>
      </trkpt>
      <trkpt lat="44.92007" lon="3.43638">
        <ele>1282.06</ele>
        <time>2015-10-17T09:52:38Z</time>
      </trkpt>
      <trkpt lat="44.92003" lon="3.43631">
        <ele>1282.54</ele>
        <time>2015-10-17T09:52:55Z</time>
      </trkpt>
      <trkpt lat="44.91993" lon="3.43616">
        <ele>1283.02</ele>
        <time>2015-10-17T09:53:15Z</time>
      </trkpt>
      <trkpt lat="44.91984" lon="3.43594">
        <ele>1283.02</ele>
        <time>2015-10-17T09:53:32Z</time>
      </trkpt>
      <trkpt lat="44.91975" lon="3.43577">
        <ele>1283.98</ele>
        <time>2015-10-17T09:53:51Z</time>
      </trkpt>
      <trkpt lat="44.9197" lon="3.43569">
        <ele>1283.98</ele>
        <time>2015-10-17T09:54:10Z</time>
      </trkpt>
      <trkpt lat="44.9196" lon="3.43559">
        <ele>1285.42</ele>
        <time>2015-10-17T09:54:30Z</time>
      </trkpt>
      <trkpt lat="44.91946" lon="3.4355">
        <ele>1286.38</ele>
        <time>2015-10-17T09:54:46Z</time>
      </trkpt>
      <trkpt lat="44.91935" lon="3.43551">
        <ele>1287.34</ele>
        <time>2015-10-17T09:55:02Z</time>
      </trkpt>
      <trkpt lat="44.91933" lon="3.43545">
        <ele>1287.82</ele>
        <time>2015-10-17T09:55:26Z</time>
      </trkpt>
      <trkpt lat="44.91934" lon="3.43547">
        <ele>1287.82</ele>
        <time>2015-10-17T09:55:48Z</time>
      </trkpt>
      <trkpt lat="44.91932" lon="3.43548">
        <ele>1287.82</ele>
        <time>2015-10-17T09:56:09Z</time>
      </trkpt>
      <trkpt lat="44.91927" lon="3.43559">
        <ele>1287.82</ele>
        <time>2015-10-17T09:56:24Z</time>
      </trkpt>
      <trkpt lat="44.9192" lon="3.4358">
        <ele>1288.3</ele>
        <time>2015-10-17T09:56:42Z</time>
      </trkpt>
      <trkpt lat="44.91914" lon="3.436">
        <ele>1288.78</ele>
        <time>2015-10-17T09:56:59Z</time>
      </trkpt>
      <trkpt lat="44.9191" lon="3.43616">
        <ele>1289.27</ele>
        <time>2015-10-17T09:57:16Z</time>
      </trkpt>
      <trkpt lat="44.91912" lon="3.43632">
        <ele>1289.75</ele>
        <time>2015-10-17T09:57:32Z</time>
      </trkpt>
      <trkpt lat="44.91916" lon="3.43633">
        <ele>1289.75</ele>
        <time>2015-10-17T09:57:58Z</time>
      </trkpt>
      <trkpt lat="44.91918" lon="3.43649">
        <ele>1290.23</ele>
        <time>2015-10-17T09:58:14Z</time>
      </trkpt>
      <trkpt lat="44.91919" lon="3.43664">
        <ele>1290.71</ele>
        <time>2015-10-17T09:58:27Z</time>
      </trkpt>
      <trkpt lat="44.91918" lon="3.43671">
        <ele>1291.19</ele>
        <time>2015-10-17T09:58:40Z</time>
      </trkpt>
      <trkpt lat="44.91921" lon="3.43684">
        <ele>1291.19</ele>
        <time>2015-10-17T09:58:58Z</time>
      </trkpt>
      <trkpt lat="44.91921" lon="3.43693">
        <ele>1291.19</ele>
        <time>2015-10-17T09:59:15Z</time>
      </trkpt>
      <trkpt lat="44.91922" lon="3.43699">
        <ele>1291.19</ele>
        <time>2015-10-17T09:59:35Z</time>
      </trkpt>
      <trkpt lat="44.91923" lon="3.43714">
        <ele>1291.19</ele>
        <time>2015-10-17T09:59:48Z</time>
      </trkpt>
      <trkpt lat="44.91919" lon="3.43732">
        <ele>1291.19</ele>
        <time>2015-10-17T10:00:05Z</time>
      </trkpt>
      <trkpt lat="44.91913" lon="3.43753">
        <ele>1291.67</ele>
        <time>2015-10-17T10:00:20Z</time>
      </trkpt>
      <trkpt lat="44.91903" lon="3.43766">
        <ele>1292.63</ele>
        <time>2015-10-17T10:00:37Z</time>
      </trkpt>
      <trkpt lat="44.91897" lon="3.43778">
        <ele>1293.11</ele>
        <time>2015-10-17T10:00:53Z</time>
      </trkpt>
      <trkpt lat="44.91894" lon="3.43782">
        <ele>1293.59</ele>
        <time>2015-10-17T10:01:09Z</time>
      </trkpt>
      <trkpt lat="44.9189" lon="3.43789">
        <ele>1295.03</ele>
        <time>2015-10-17T10:01:27Z</time>
      </trkpt>
      <trkpt lat="44.91889" lon="3.43789">
        <ele>1295.03</ele>
        <time>2015-10-17T10:01:40Z</time>
      </trkpt>
      <trkpt lat="44.91885" lon="3.43796">
        <ele>1295.03</ele>
        <time>2015-10-17T10:01:54Z</time>
      </trkpt>
      <trkpt lat="44.91875" lon="3.43815">
        <ele>1295.99</ele>
        <time>2015-10-17T10:02:15Z</time>
      </trkpt>
      <trkpt lat="44.91862" lon="3.43842">
        <ele>1296.48</ele>
        <time>2015-10-17T10:02:37Z</time>
      </trkpt>
      <trkpt lat="44.91848" lon="3.43867">
        <ele>1296.48</ele>
        <time>2015-10-17T10:02:58Z</time>
      </trkpt>
      <trkpt lat="44.91834" lon="3.43884">
        <ele>1296.48</ele>
        <time>2015-10-17T10:03:19Z</time>
      </trkpt>
      <trkpt lat="44.91819" lon="3.43906">
        <ele>1296.48</ele>
        <time>2015-10-17T10:03:41Z</time>
      </trkpt>
      <trkpt lat="44.9181" lon="3.4393">
        <ele>1296.48</ele>
        <time>2015-10-17T10:04:04Z</time>
      </trkpt>
      <trkpt lat="44.91802" lon="3.43952">
        <ele>1295.51</ele>
        <time>2015-10-17T10:04:25Z</time>
      </trkpt>
      <trkpt lat="44.91793" lon="3.4398">
        <ele>1295.03</ele>
        <time>2015-10-17T10:04:49Z</time>
      </trkpt>
      <trkpt lat="44.91782" lon="3.43996">
        <ele>1294.55</ele>
        <time>2015-10-17T10:05:08Z</time>
      </trkpt>
      <trkpt lat="44.91769" lon="3.44007">
        <ele>1294.07</ele>
        <time>2015-10-17T10:05:28Z</time>
      </trkpt>
      <trkpt lat="44.91753" lon="3.4401">
        <ele>1293.11</ele>
        <time>2015-10-17T10:05:49Z</time>
      </trkpt>
      <trkpt lat="44.91732" lon="3.44026">
        <ele>1291.67</ele>
        <time>2015-10-17T10:06:11Z</time>
      </trkpt>
      <trkpt lat="44.91719" lon="3.44043">
        <ele>1289.75</ele>
        <time>2015-10-17T10:06:33Z</time>
      </trkpt>
      <trkpt lat="44.91709" lon="3.44061">
        <ele>1288.3</ele>
        <time>2015-10-17T10:06:54Z</time>
      </trkpt>
      <trkpt lat="44.91698" lon="3.44076">
        <ele>1287.34</ele>
        <time>2015-10-17T10:07:13Z</time>
      </trkpt>
      <trkpt lat="44.91684" lon="3.4409">
        <ele>1285.9</ele>
        <time>2015-10-17T10:07:34Z</time>
      </trkpt>
      <trkpt lat="44.91672" lon="3.44109">
        <ele>1284.46</ele>
        <time>2015-10-17T10:07:55Z</time>
      </trkpt>
      <trkpt lat="44.91661" lon="3.44124">
        <ele>1283.02</ele>
        <time>2015-10-17T10:08:16Z</time>
      </trkpt>
      <trkpt lat="44.91658" lon="3.44137">
        <ele>1282.06</ele>
        <time>2015-10-17T10:08:40Z</time>
      </trkpt>
      <trkpt lat="44.91647" lon="3.44146">
        <ele>1281.09</ele>
        <time>2015-10-17T10:09:00Z</time>
      </trkpt>
      <trkpt lat="44.9163" lon="3.44152">
        <ele>1279.65</ele>
        <time>2015-10-17T10:09:22Z</time>
      </trkpt>
      <trkpt lat="44.91611" lon="3.44158">
        <ele>1278.21</ele>
        <time>2015-10-17T10:09:43Z</time>
      </trkpt>
      <trkpt lat="44.91595" lon="3.44159">
        <ele>1276.77</ele>
        <time>2015-10-17T10:10:03Z</time>
      </trkpt>
      <trkpt lat="44.91591" lon="3.44161">
        <ele>1276.77</ele>
        <time>2015-10-17T10:10:27Z</time>
      </trkpt>
      <trkpt lat="44.91581" lon="3.44156">
        <ele>1276.29</ele>
        <time>2015-10-17T10:10:49Z</time>
      </trkpt>
      <trkpt lat="44.91566" lon="3.4415">
        <ele>1275.33</ele>
        <time>2015-10-17T10:11:07Z</time>
      </trkpt>
      <trkpt lat="44.91549" lon="3.44137">
        <ele>1274.36</ele>
        <time>2015-10-17T10:11:31Z</time>
      </trkpt>
      <trkpt lat="44.91535" lon="3.44132">
        <ele>1273.4</ele>
        <time>2015-10-17T10:11:53Z</time>
      </trkpt>
      <trkpt lat="44.91535" lon="3.44129">
        <ele>1274.85</ele>
        <time>2015-10-17T10:12:19Z</time>
      </trkpt>
      <trkpt lat="44.91535" lon="3.44126">
        <ele>1273.88</ele>
        <time>2015-10-17T10:12:46Z</time>
      </trkpt>
      <trkpt lat="44.91541" lon="3.44125">
        <ele>1273.88</ele>
        <time>2015-10-17T10:13:10Z</time>
      </trkpt>
      <trkpt lat="44.9154" lon="3.44124">
        <ele>1273.88</ele>
        <time>2015-10-17T10:13:40Z</time>
      </trkpt>
      <trkpt lat="44.9154" lon="3.44124">
        <ele>1277.73</ele>
        <time>2015-10-17T10:13:42Z</time>
      </trkpt>
      <trkpt lat="44.9154" lon="3.44124">
        <ele>1274.85</ele>
        <time>2015-10-17T10:13:43Z</time>
      </trkpt>
      <trkpt lat="44.91539" lon="3.44126">
        <ele>1274.36</ele>
        <time>2015-10-17T10:13:59Z</time>
      </trkpt>
      <trkpt lat="44.9154" lon="3.44126">
        <ele>1274.36</ele>
        <time>2015-10-17T10:14:21Z</time>
      </trkpt>
      <trkpt lat="44.91539" lon="3.44126">
        <ele>1274.36</ele>
        <time>2015-10-17T10:14:22Z</time>
      </trkpt>
      <trkpt lat="44.91541" lon="3.44125">
        <ele>1287.82</ele>
        <time>2015-10-17T10:59:41Z</time>
      </trkpt>
      <trkpt lat="44.91544" lon="3.44112">
        <ele>1287.82</ele>
        <time>2015-10-17T10:59:42Z</time>
      </trkpt>
      <trkpt lat="44.91546" lon="3.44108">
        <ele>1284.46</ele>
        <time>2015-10-17T10:59:58Z</time>
      </trkpt>
      <trkpt lat="44.91548" lon="3.44121">
        <ele>1282.54</ele>
        <time>2015-10-17T11:00:20Z</time>
      </trkpt>
      <trkpt lat="44.91543" lon="3.44125">
        <ele>1282.54</ele>
        <time>2015-10-17T11:00:36Z</time>
      </trkpt>
      <trkpt lat="44.91536" lon="3.44133">
        <ele>1282.54</ele>
        <time>2015-10-17T11:00:55Z</time>
      </trkpt>
      <trkpt lat="44.91533" lon="3.44129">
        <ele>1282.06</ele>
        <time>2015-10-17T11:01:24Z</time>
      </trkpt>
      <trkpt lat="44.91536" lon="3.44121">
        <ele>1282.06</ele>
        <time>2015-10-17T11:01:53Z</time>
      </trkpt>
      <trkpt lat="44.91536" lon="3.44127">
        <ele>1281.57</ele>
        <time>2015-10-17T11:02:22Z</time>
      </trkpt>
      <trkpt lat="44.91521" lon="3.44119">
        <ele>1281.09</ele>
        <time>2015-10-17T11:02:42Z</time>
      </trkpt>
      <trkpt lat="44.91511" lon="3.44117">
        <ele>1280.13</ele>
        <time>2015-10-17T11:03:01Z</time>
      </trkpt>
      <trkpt lat="44.91497" lon="3.44115">
        <ele>1279.65</ele>
        <time>2015-10-17T11:03:22Z</time>
      </trkpt>
      <trkpt lat="44.91477" lon="3.44106">
        <ele>1278.69</ele>
        <time>2015-10-17T11:03:43Z</time>
      </trkpt>
      <trkpt lat="44.91457" lon="3.44095">
        <ele>1277.25</ele>
        <time>2015-10-17T11:04:08Z</time>
      </trkpt>
      <trkpt lat="44.91442" lon="3.44087">
        <ele>1276.29</ele>
        <time>2015-10-17T11:04:28Z</time>
      </trkpt>
      <trkpt lat="44.91431" lon="3.44083">
        <ele>1274.85</ele>
        <time>2015-10-17T11:04:46Z</time>
      </trkpt>
      <trkpt lat="44.91416" lon="3.44079">
        <ele>1273.4</ele>
        <time>2015-10-17T11:05:07Z</time>
      </trkpt>
      <trkpt lat="44.91398" lon="3.44069">
        <ele>1271.96</ele>
        <time>2015-10-17T11:05:29Z</time>
      </trkpt>
      <trkpt lat="44.91378" lon="3.44065">
        <ele>1270.52</ele>
        <time>2015-10-17T11:05:50Z</time>
      </trkpt>
      <trkpt lat="44.91371" lon="3.44062">
        <ele>1270.04</ele>
        <time>2015-10-17T11:06:10Z</time>
      </trkpt>
      <trkpt lat="44.91352" lon="3.44056">
        <ele>1269.08</ele>
        <time>2015-10-17T11:06:32Z</time>
      </trkpt>
      <trkpt lat="44.91337" lon="3.44049">
        <ele>1268.12</ele>
        <time>2015-10-17T11:06:52Z</time>
      </trkpt>
      <trkpt lat="44.91316" lon="3.44043">
        <ele>1267.16</ele>
        <time>2015-10-17T11:07:14Z</time>
      </trkpt>
      <trkpt lat="44.913" lon="3.44039">
        <ele>1266.19</ele>
        <time>2015-10-17T11:07:34Z</time>
      </trkpt>
      <trkpt lat="44.91284" lon="3.4404">
        <ele>1265.23</ele>
        <time>2015-10-17T11:07:54Z</time>
      </trkpt>
      <trkpt lat="44.91263" lon="3.4404">
        <ele>1263.79</ele>
        <time>2015-10-17T11:08:20Z</time>
      </trkpt>
      <trkpt lat="44.9125" lon="3.44046">
        <ele>1262.35</ele>
        <time>2015-10-17T11:08:39Z</time>
      </trkpt>
      <trkpt lat="44.91231" lon="3.44058">
        <ele>1260.91</ele>
        <time>2015-10-17T11:09:02Z</time>
      </trkpt>
      <trkpt lat="44.9121" lon="3.44072">
        <ele>1259.94</ele>
        <time>2015-10-17T11:09:27Z</time>
      </trkpt>
      <trkpt lat="44.91194" lon="3.44086">
        <ele>1258.98</ele>
        <time>2015-10-17T11:09:49Z</time>
      </trkpt>
      <trkpt lat="44.91181" lon="3.44107">
        <ele>1257.54</ele>
        <time>2015-10-17T11:10:12Z</time>
      </trkpt>
      <trkpt lat="44.91165" lon="3.44129">
        <ele>1254.66</ele>
        <time>2015-10-17T11:10:37Z</time>
      </trkpt>
      <trkpt lat="44.91152" lon="3.44141">
        <ele>1252.74</ele>
        <time>2015-10-17T11:10:57Z</time>
      </trkpt>
      <trkpt lat="44.9114" lon="3.44159">
        <ele>1250.81</ele>
        <time>2015-10-17T11:11:18Z</time>
      </trkpt>
      <trkpt lat="44.91142" lon="3.44164">
        <ele>1249.85</ele>
        <time>2015-10-17T11:11:39Z</time>
      </trkpt>
      <trkpt lat="44.91143" lon="3.44171">
        <ele>1250.33</ele>
        <time>2015-10-17T11:12:15Z</time>
      </trkpt>
      <trkpt lat="44.91141" lon="3.44167">
        <ele>1250.81</ele>
        <time>2015-10-17T11:12:33Z</time>
      </trkpt>
      <trkpt lat="44.91137" lon="3.44161">
        <ele>1250.33</ele>
        <time>2015-10-17T11:12:54Z</time>
      </trkpt>
      <trkpt lat="44.91137" lon="3.44159">
        <ele>1250.33</ele>
        <time>2015-10-17T11:13:20Z</time>
      </trkpt>
      <trkpt lat="44.91134" lon="3.44142">
        <ele>1250.33</ele>
        <time>2015-10-17T11:13:34Z</time>
      </trkpt>
      <trkpt lat="44.91135" lon="3.44129">
        <ele>1250.33</ele>
        <time>2015-10-17T11:13:45Z</time>
      </trkpt>
      <trkpt lat="44.91137" lon="3.44112">
        <ele>1250.33</ele>
        <time>2015-10-17T11:14:00Z</time>
      </trkpt>
      <trkpt lat="44.9114" lon="3.44104">
        <ele>1249.85</ele>
        <time>2015-10-17T11:14:14Z</time>
      </trkpt>
      <trkpt lat="44.91143" lon="3.44094">
        <ele>1249.37</ele>
        <time>2015-10-17T11:14:31Z</time>
      </trkpt>
      <trkpt lat="44.91146" lon="3.44075">
        <ele>1249.37</ele>
        <time>2015-10-17T11:14:46Z</time>
      </trkpt>
      <trkpt lat="44.91147" lon="3.44067">
        <ele>1249.37</ele>
        <time>2015-10-17T11:14:53Z</time>
      </trkpt>
      <trkpt lat="44.91151" lon="3.44055">
        <ele>1248.89</ele>
        <time>2015-10-17T11:15:10Z</time>
      </trkpt>
      <trkpt lat="44.91157" lon="3.44037">
        <ele>1248.41</ele>
        <time>2015-10-17T11:15:27Z</time>
      </trkpt>
      <trkpt lat="44.91167" lon="3.44022">
        <ele>1247.93</ele>
        <time>2015-10-17T11:15:45Z</time>
      </trkpt>
      <trkpt lat="44.91172" lon="3.44013">
        <ele>1247.93</ele>
        <time>2015-10-17T11:15:59Z</time>
      </trkpt>
      <trkpt lat="44.91175" lon="3.44005">
        <ele>1247.45</ele>
        <time>2015-10-17T11:16:06Z</time>
      </trkpt>
      <trkpt lat="44.9118" lon="3.43991">
        <ele>1246.97</ele>
        <time>2015-10-17T11:16:20Z</time>
      </trkpt>
      <trkpt lat="44.91187" lon="3.43973">
        <ele>1246.97</ele>
        <time>2015-10-17T11:16:37Z</time>
      </trkpt>
      <trkpt lat="44.91195" lon="3.43954">
        <ele>1246.97</ele>
        <time>2015-10-17T11:16:53Z</time>
      </trkpt>
      <trkpt lat="44.91201" lon="3.43939">
        <ele>1246.49</ele>
        <time>2015-10-17T11:17:12Z</time>
      </trkpt>
      <trkpt lat="44.91207" lon="3.43917">
        <ele>1245.53</ele>
        <time>2015-10-17T11:17:31Z</time>
      </trkpt>
      <trkpt lat="44.91213" lon="3.43897">
        <ele>1245.04</ele>
        <time>2015-10-17T11:17:46Z</time>
      </trkpt>
      <trkpt lat="44.91215" lon="3.4389">
        <ele>1244.56</ele>
        <time>2015-10-17T11:17:52Z</time>
      </trkpt>
      <trkpt lat="44.91222" lon="3.43869">
        <ele>1244.08</ele>
        <time>2015-10-17T11:18:10Z</time>
      </trkpt>
      <trkpt lat="44.91229" lon="3.4385">
        <ele>1243.6</ele>
        <time>2015-10-17T11:18:28Z</time>
      </trkpt>
      <trkpt lat="44.91231" lon="3.43833">
        <ele>1243.12</ele>
        <time>2015-10-17T11:18:43Z</time>
      </trkpt>
      <trkpt lat="44.9123" lon="3.43823">
        <ele>1243.12</ele>
        <time>2015-10-17T11:18:50Z</time>
      </trkpt>
      <trkpt lat="44.91227" lon="3.43813">
        <ele>1243.12</ele>
        <time>2015-10-17T11:19:04Z</time>
      </trkpt>
      <trkpt lat="44.91221" lon="3.43801">
        <ele>1242.64</ele>
        <time>2015-10-17T11:19:27Z</time>
      </trkpt>
      <trkpt lat="44.9121" lon="3.43785">
        <ele>1242.64</ele>
        <time>2015-10-17T11:19:43Z</time>
      </trkpt>
      <trkpt lat="44.91209" lon="3.43788">
        <ele>1242.64</ele>
        <time>2015-10-17T11:20:01Z</time>
      </trkpt>
      <trkpt lat="44.9121" lon="3.43789">
        <ele>1242.64</ele>
        <time>2015-10-17T11:20:21Z</time>
      </trkpt>
      <trkpt lat="44.912" lon="3.43773">
        <ele>1242.64</ele>
        <time>2015-10-17T11:20:36Z</time>
      </trkpt>
      <trkpt lat="44.9119" lon="3.43763">
        <ele>1244.56</ele>
        <time>2015-10-17T11:20:52Z</time>
      </trkpt>
      <trkpt lat="44.91182" lon="3.43752">
        <ele>1245.53</ele>
        <time>2015-10-17T11:21:08Z</time>
      </trkpt>
      <trkpt lat="44.91175" lon="3.43748">
        <ele>1246.01</ele>
        <time>2015-10-17T11:21:16Z</time>
      </trkpt>
      <trkpt lat="44.91158" lon="3.4374">
        <ele>1244.08</ele>
        <time>2015-10-17T11:21:35Z</time>
      </trkpt>
      <trkpt lat="44.91141" lon="3.43737">
        <ele>1243.12</ele>
        <time>2015-10-17T11:21:53Z</time>
      </trkpt>
      <trkpt lat="44.91124" lon="3.43735">
        <ele>1242.64</ele>
        <time>2015-10-17T11:22:12Z</time>
      </trkpt>
      <trkpt lat="44.91107" lon="3.43733">
        <ele>1242.64</ele>
        <time>2015-10-17T11:22:30Z</time>
      </trkpt>
      <trkpt lat="44.91089" lon="3.43731">
        <ele>1242.64</ele>
        <time>2015-10-17T11:22:43Z</time>
      </trkpt>
      <trkpt lat="44.91076" lon="3.43731">
        <ele>1242.16</ele>
        <time>2015-10-17T11:22:56Z</time>
      </trkpt>
      <trkpt lat="44.91058" lon="3.43738">
        <ele>1244.08</ele>
        <time>2015-10-17T11:23:15Z</time>
      </trkpt>
      <trkpt lat="44.91041" lon="3.43742">
        <ele>1244.56</ele>
        <time>2015-10-17T11:23:32Z</time>
      </trkpt>
      <trkpt lat="44.91029" lon="3.43748">
        <ele>1245.53</ele>
        <time>2015-10-17T11:23:46Z</time>
      </trkpt>
      <trkpt lat="44.91022" lon="3.43753">
        <ele>1246.01</ele>
        <time>2015-10-17T11:23:55Z</time>
      </trkpt>
      <trkpt lat="44.9101" lon="3.43763">
        <ele>1246.01</ele>
        <time>2015-10-17T11:24:08Z</time>
      </trkpt>
      <trkpt lat="44.91007" lon="3.43766">
        <ele>1246.49</ele>
        <time>2015-10-17T11:24:40Z</time>
      </trkpt>
      <trkpt lat="44.90997" lon="3.43775">
        <ele>1246.49</ele>
        <time>2015-10-17T11:24:55Z</time>
      </trkpt>
      <trkpt lat="44.90993" lon="3.43777">
        <ele>1246.49</ele>
        <time>2015-10-17T11:25:12Z</time>
      </trkpt>
      <trkpt lat="44.90987" lon="3.43782">
        <ele>1246.49</ele>
        <time>2015-10-17T11:25:39Z</time>
      </trkpt>
      <trkpt lat="44.90977" lon="3.43795">
        <ele>1246.49</ele>
        <time>2015-10-17T11:25:55Z</time>
      </trkpt>
      <trkpt lat="44.90966" lon="3.43805">
        <ele>1246.49</ele>
        <time>2015-10-17T11:26:11Z</time>
      </trkpt>
      <trkpt lat="44.90954" lon="3.43817">
        <ele>1246.49</ele>
        <time>2015-10-17T11:26:26Z</time>
      </trkpt>
      <trkpt lat="44.90945" lon="3.43826">
        <ele>1246.49</ele>
        <time>2015-10-17T11:26:39Z</time>
      </trkpt>
      <trkpt lat="44.90934" lon="3.43837">
        <ele>1246.49</ele>
        <time>2015-10-17T11:26:53Z</time>
      </trkpt>
      <trkpt lat="44.90933" lon="3.4384">
        <ele>1246.49</ele>
        <time>2015-10-17T11:27:09Z</time>
      </trkpt>
      <trkpt lat="44.90924" lon="3.43844">
        <ele>1246.49</ele>
        <time>2015-10-17T11:27:26Z</time>
      </trkpt>
      <trkpt lat="44.90915" lon="3.43856">
        <ele>1246.49</ele>
        <time>2015-10-17T11:27:40Z</time>
      </trkpt>
      <trkpt lat="44.90905" lon="3.43864">
        <ele>1245.53</ele>
        <time>2015-10-17T11:27:54Z</time>
      </trkpt>
      <trkpt lat="44.90889" lon="3.43877">
        <ele>1244.08</ele>
        <time>2015-10-17T11:28:13Z</time>
      </trkpt>
      <trkpt lat="44.90874" lon="3.43884">
        <ele>1243.6</ele>
        <time>2015-10-17T11:28:29Z</time>
      </trkpt>
      <trkpt lat="44.90857" lon="3.43885">
        <ele>1242.64</ele>
        <time>2015-10-17T11:28:48Z</time>
      </trkpt>
      <trkpt lat="44.90845" lon="3.43884">
        <ele>1242.16</ele>
        <time>2015-10-17T11:29:03Z</time>
      </trkpt>
      <trkpt lat="44.90829" lon="3.43883">
        <ele>1240.24</ele>
        <time>2015-10-17T11:29:20Z</time>
      </trkpt>
      <trkpt lat="44.90817" lon="3.43892">
        <ele>1240.24</ele>
        <time>2015-10-17T11:29:34Z</time>
      </trkpt>
      <trkpt lat="44.90809" lon="3.43904">
        <ele>1240.24</ele>
        <time>2015-10-17T11:29:47Z</time>
      </trkpt>
      <trkpt lat="44.90803" lon="3.43923">
        <ele>1240.24</ele>
        <time>2015-10-17T11:30:02Z</time>
      </trkpt>
      <trkpt lat="44.90802" lon="3.43935">
        <ele>1241.2</ele>
        <time>2015-10-17T11:30:12Z</time>
      </trkpt>
      <trkpt lat="44.908" lon="3.43952">
        <ele>1241.68</ele>
        <time>2015-10-17T11:30:25Z</time>
      </trkpt>
      <trkpt lat="44.90797" lon="3.43969">
        <ele>1242.16</ele>
        <time>2015-10-17T11:30:39Z</time>
      </trkpt>
      <trkpt lat="44.90795" lon="3.43988">
        <ele>1242.16</ele>
        <time>2015-10-17T11:30:54Z</time>
      </trkpt>
      <trkpt lat="44.90794" lon="3.44004">
        <ele>1240.72</ele>
        <time>2015-10-17T11:31:05Z</time>
      </trkpt>
      <trkpt lat="44.90795" lon="3.44022">
        <ele>1239.76</ele>
        <time>2015-10-17T11:31:19Z</time>
      </trkpt>
      <trkpt lat="44.90792" lon="3.44039">
        <ele>1239.28</ele>
        <time>2015-10-17T11:31:33Z</time>
      </trkpt>
      <trkpt lat="44.90788" lon="3.44055">
        <ele>1239.28</ele>
        <time>2015-10-17T11:31:45Z</time>
      </trkpt>
      <trkpt lat="44.90786" lon="3.44057">
        <ele>1239.28</ele>
        <time>2015-10-17T11:31:47Z</time>
      </trkpt>
      <trkpt lat="44.90773" lon="3.44078">
        <ele>1239.28</ele>
        <time>2015-10-17T11:32:03Z</time>
      </trkpt>
      <trkpt lat="44.90762" lon="3.44088">
        <ele>1238.8</ele>
        <time>2015-10-17T11:32:17Z</time>
      </trkpt>
      <trkpt lat="44.9075" lon="3.441">
        <ele>1238.8</ele>
        <time>2015-10-17T11:32:32Z</time>
      </trkpt>
      <trkpt lat="44.90737" lon="3.44112">
        <ele>1239.76</ele>
        <time>2015-10-17T11:32:47Z</time>
      </trkpt>
      <trkpt lat="44.90729" lon="3.44123">
        <ele>1240.24</ele>
        <time>2015-10-17T11:33:01Z</time>
      </trkpt>
      <trkpt lat="44.90729" lon="3.44126">
        <ele>1240.24</ele>
        <time>2015-10-17T11:33:24Z</time>
      </trkpt>
      <trkpt lat="44.90726" lon="3.44129">
        <ele>1240.24</ele>
        <time>2015-10-17T11:33:50Z</time>
      </trkpt>
      <trkpt lat="44.90717" lon="3.4414">
        <ele>1240.24</ele>
        <time>2015-10-17T11:34:06Z</time>
      </trkpt>
      <trkpt lat="44.90709" lon="3.44148">
        <ele>1240.72</ele>
        <time>2015-10-17T11:34:19Z</time>
      </trkpt>
      <trkpt lat="44.90705" lon="3.44157">
        <ele>1241.2</ele>
        <time>2015-10-17T11:34:34Z</time>
      </trkpt>
      <trkpt lat="44.90699" lon="3.44165">
        <ele>1241.68</ele>
        <time>2015-10-17T11:34:51Z</time>
      </trkpt>
      <trkpt lat="44.90691" lon="3.44176">
        <ele>1242.64</ele>
        <time>2015-10-17T11:35:06Z</time>
      </trkpt>
      <trkpt lat="44.90683" lon="3.44193">
        <ele>1242.64</ele>
        <time>2015-10-17T11:35:23Z</time>
      </trkpt>
      <trkpt lat="44.90679" lon="3.44196">
        <ele>1243.12</ele>
        <time>2015-10-17T11:35:35Z</time>
      </trkpt>
      <trkpt lat="44.90672" lon="3.44202">
        <ele>1243.6</ele>
        <time>2015-10-17T11:35:50Z</time>
      </trkpt>
      <trkpt lat="44.90664" lon="3.44214">
        <ele>1244.08</ele>
        <time>2015-10-17T11:36:05Z</time>
      </trkpt>
      <trkpt lat="44.90656" lon="3.44225">
        <ele>1244.56</ele>
        <time>2015-10-17T11:36:20Z</time>
      </trkpt>
      <trkpt lat="44.90646" lon="3.44241">
        <ele>1244.56</ele>
        <time>2015-10-17T11:36:36Z</time>
      </trkpt>
      <trkpt lat="44.90635" lon="3.44256">
        <ele>1244.56</ele>
        <time>2015-10-17T11:36:52Z</time>
      </trkpt>
      <trkpt lat="44.90633" lon="3.44256">
        <ele>1244.56</ele>
        <time>2015-10-17T11:37:09Z</time>
      </trkpt>
      <trkpt lat="44.90632" lon="3.44251">
        <ele>1244.56</ele>
        <time>2015-10-17T11:37:24Z</time>
      </trkpt>
      <trkpt lat="44.9063" lon="3.44254">
        <ele>1244.56</ele>
        <time>2015-10-17T11:37:47Z</time>
      </trkpt>
      <trkpt lat="44.90626" lon="3.44253">
        <ele>1244.56</ele>
        <time>2015-10-17T11:38:17Z</time>
      </trkpt>
      <trkpt lat="44.90628" lon="3.44256">
        <ele>1245.04</ele>
        <time>2015-10-17T11:38:47Z</time>
      </trkpt>
      <trkpt lat="44.90628" lon="3.44256">
        <ele>1245.04</ele>
        <time>2015-10-17T11:39:14Z</time>
      </trkpt>
      <trkpt lat="44.90628" lon="3.44257">
        <ele>1245.04</ele>
        <time>2015-10-17T11:39:36Z</time>
      </trkpt>
      <trkpt lat="44.90628" lon="3.44263">
        <ele>1245.04</ele>
        <time>2015-10-17T11:39:59Z</time>
      </trkpt>
      <trkpt lat="44.90627" lon="3.44263">
        <ele>1245.04</ele>
        <time>2015-10-17T11:40:20Z</time>
      </trkpt>
      <trkpt lat="44.90627" lon="3.44271">
        <ele>1245.04</ele>
        <time>2015-10-17T11:40:40Z</time>
      </trkpt>
      <trkpt lat="44.90625" lon="3.44276">
        <ele>1245.04</ele>
        <time>2015-10-17T11:41:03Z</time>
      </trkpt>
      <trkpt lat="44.90619" lon="3.4428">
        <ele>1245.04</ele>
        <time>2015-10-17T11:41:27Z</time>
      </trkpt>
      <trkpt lat="44.90612" lon="3.44287">
        <ele>1245.04</ele>
        <time>2015-10-17T11:41:41Z</time>
      </trkpt>
      <trkpt lat="44.90605" lon="3.44299">
        <ele>1245.04</ele>
        <time>2015-10-17T11:41:58Z</time>
      </trkpt>
      <trkpt lat="44.90596" lon="3.44313">
        <ele>1245.04</ele>
        <time>2015-10-17T11:42:15Z</time>
      </trkpt>
      <trkpt lat="44.90587" lon="3.44323">
        <ele>1245.04</ele>
        <time>2015-10-17T11:42:31Z</time>
      </trkpt>
      <trkpt lat="44.90577" lon="3.4433">
        <ele>1245.04</ele>
        <time>2015-10-17T11:42:46Z</time>
      </trkpt>
      <trkpt lat="44.9057" lon="3.44338">
        <ele>1245.53</ele>
        <time>2015-10-17T11:43:00Z</time>
      </trkpt>
      <trkpt lat="44.90566" lon="3.4434">
        <ele>1245.53</ele>
        <time>2015-10-17T11:43:20Z</time>
      </trkpt>
      <trkpt lat="44.90558" lon="3.44343">
        <ele>1246.01</ele>
        <time>2015-10-17T11:43:38Z</time>
      </trkpt>
      <trkpt lat="44.90548" lon="3.4435">
        <ele>1246.97</ele>
        <time>2015-10-17T11:43:53Z</time>
      </trkpt>
      <trkpt lat="44.90537" lon="3.44355">
        <ele>1247.45</ele>
        <time>2015-10-17T11:44:07Z</time>
      </trkpt>
      <trkpt lat="44.90525" lon="3.4436">
        <ele>1247.93</ele>
        <time>2015-10-17T11:44:21Z</time>
      </trkpt>
      <trkpt lat="44.90515" lon="3.4437">
        <ele>1248.41</ele>
        <time>2015-10-17T11:44:36Z</time>
      </trkpt>
      <trkpt lat="44.90505" lon="3.44381">
        <ele>1248.41</ele>
        <time>2015-10-17T11:44:50Z</time>
      </trkpt>
      <trkpt lat="44.90495" lon="3.44391">
        <ele>1248.41</ele>
        <time>2015-10-17T11:45:05Z</time>
      </trkpt>
      <trkpt lat="44.90486" lon="3.44399">
        <ele>1248.41</ele>
        <time>2015-10-17T11:45:17Z</time>
      </trkpt>
      <trkpt lat="44.90474" lon="3.4441">
        <ele>1248.89</ele>
        <time>2015-10-17T11:45:32Z</time>
      </trkpt>
      <trkpt lat="44.90466" lon="3.44417">
        <ele>1248.89</ele>
        <time>2015-10-17T11:45:46Z</time>
      </trkpt>
      <trkpt lat="44.90452" lon="3.44426">
        <ele>1248.89</ele>
        <time>2015-10-17T11:46:01Z</time>
      </trkpt>
      <trkpt lat="44.9045" lon="3.44429">
        <ele>1248.89</ele>
        <time>2015-10-17T11:46:03Z</time>
      </trkpt>
      <trkpt lat="44.90438" lon="3.4444">
        <ele>1249.85</ele>
        <time>2015-10-17T11:46:18Z</time>
      </trkpt>
      <trkpt lat="44.90436" lon="3.44442">
        <ele>1249.85</ele>
        <time>2015-10-17T11:46:21Z</time>
      </trkpt>
      <trkpt lat="44.90422" lon="3.44446">
        <ele>1249.85</ele>
        <time>2015-10-17T11:46:37Z</time>
      </trkpt>
      <trkpt lat="44.90407" lon="3.44444">
        <ele>1251.29</ele>
        <time>2015-10-17T11:46:54Z</time>
      </trkpt>
      <trkpt lat="44.90398" lon="3.44446">
        <ele>1251.29</ele>
        <time>2015-10-17T11:47:10Z</time>
      </trkpt>
      <trkpt lat="44.90384" lon="3.44445">
        <ele>1251.77</ele>
        <time>2015-10-17T11:47:25Z</time>
      </trkpt>
      <trkpt lat="44.90372" lon="3.44445">
        <ele>1252.25</ele>
        <time>2015-10-17T11:47:38Z</time>
      </trkpt>
      <trkpt lat="44.90362" lon="3.44443">
        <ele>1252.74</ele>
        <time>2015-10-17T11:47:56Z</time>
      </trkpt>
      <trkpt lat="44.90349" lon="3.44441">
        <ele>1253.22</ele>
        <time>2015-10-17T11:48:12Z</time>
      </trkpt>
      <trkpt lat="44.90335" lon="3.44441">
        <ele>1253.22</ele>
        <time>2015-10-17T11:48:27Z</time>
      </trkpt>
      <trkpt lat="44.90322" lon="3.44439">
        <ele>1254.18</ele>
        <time>2015-10-17T11:48:41Z</time>
      </trkpt>
      <trkpt lat="44.90311" lon="3.44436">
        <ele>1255.14</ele>
        <time>2015-10-17T11:48:53Z</time>
      </trkpt>
      <trkpt lat="44.90298" lon="3.44432">
        <ele>1255.62</ele>
        <time>2015-10-17T11:49:05Z</time>
      </trkpt>
      <trkpt lat="44.90288" lon="3.44426">
        <ele>1257.06</ele>
        <time>2015-10-17T11:49:17Z</time>
      </trkpt>
      <trkpt lat="44.90276" lon="3.44419">
        <ele>1258.02</ele>
        <time>2015-10-17T11:49:32Z</time>
      </trkpt>
      <trkpt lat="44.90263" lon="3.44408">
        <ele>1258.5</ele>
        <time>2015-10-17T11:49:46Z</time>
      </trkpt>
      <trkpt lat="44.90252" lon="3.44404">
        <ele>1258.98</ele>
        <time>2015-10-17T11:50:01Z</time>
      </trkpt>
      <trkpt lat="44.9024" lon="3.44399">
        <ele>1258.98</ele>
        <time>2015-10-17T11:50:15Z</time>
      </trkpt>
      <trkpt lat="44.90231" lon="3.44391">
        <ele>1259.46</ele>
        <time>2015-10-17T11:50:30Z</time>
      </trkpt>
      <trkpt lat="44.90226" lon="3.44396">
        <ele>1258.98</ele>
        <time>2015-10-17T11:50:50Z</time>
      </trkpt>
      <trkpt lat="44.90228" lon="3.44397">
        <ele>1258.98</ele>
        <time>2015-10-17T11:51:09Z</time>
      </trkpt>
      <trkpt lat="44.90231" lon="3.44399">
        <ele>1258.98</ele>
        <time>2015-10-17T11:51:33Z</time>
      </trkpt>
      <trkpt lat="44.90229" lon="3.44398">
        <ele>1259.46</ele>
        <time>2015-10-17T11:51:50Z</time>
      </trkpt>
      <trkpt lat="44.90229" lon="3.44395">
        <ele>1259.94</ele>
        <time>2015-10-17T11:52:14Z</time>
      </trkpt>
      <trkpt lat="44.9023" lon="3.44394">
        <ele>1258.98</ele>
        <time>2015-10-17T11:52:36Z</time>
      </trkpt>
      <trkpt lat="44.90229" lon="3.44393">
        <ele>1259.94</ele>
        <time>2015-10-17T11:52:56Z</time>
      </trkpt>
      <trkpt lat="44.90228" lon="3.44397">
        <ele>1259.94</ele>
        <time>2015-10-17T11:53:16Z</time>
      </trkpt>
      <trkpt lat="44.90227" lon="3.44394">
        <ele>1259.94</ele>
        <time>2015-10-17T11:53:31Z</time>
      </trkpt>
      <trkpt lat="44.90225" lon="3.44391">
        <ele>1259.94</ele>
        <time>2015-10-17T11:53:58Z</time>
      </trkpt>
      <trkpt lat="44.90218" lon="3.44386">
        <ele>1259.94</ele>
        <time>2015-10-17T11:54:17Z</time>
      </trkpt>
      <trkpt lat="44.90206" lon="3.44378">
        <ele>1259.94</ele>
        <time>2015-10-17T11:54:33Z</time>
      </trkpt>
      <trkpt lat="44.90194" lon="3.44375">
        <ele>1259.94</ele>
        <time>2015-10-17T11:54:49Z</time>
      </trkpt>
      <trkpt lat="44.90181" lon="3.44371">
        <ele>1258.98</ele>
        <time>2015-10-17T11:55:05Z</time>
      </trkpt>
      <trkpt lat="44.90168" lon="3.44369">
        <ele>1258.5</ele>
        <time>2015-10-17T11:55:20Z</time>
      </trkpt>
      <trkpt lat="44.90164" lon="3.44368">
        <ele>1259.94</ele>
        <time>2015-10-17T11:55:24Z</time>
      </trkpt>
      <trkpt lat="44.90151" lon="3.44364">
        <ele>1260.91</ele>
        <time>2015-10-17T11:55:39Z</time>
      </trkpt>
      <trkpt lat="44.9014" lon="3.44356">
        <ele>1261.87</ele>
        <time>2015-10-17T11:55:53Z</time>
      </trkpt>
      <trkpt lat="44.90129" lon="3.44347">
        <ele>1262.83</ele>
        <time>2015-10-17T11:56:08Z</time>
      </trkpt>
      <trkpt lat="44.90116" lon="3.44337">
        <ele>1263.79</ele>
        <time>2015-10-17T11:56:23Z</time>
      </trkpt>
      <trkpt lat="44.90103" lon="3.4433">
        <ele>1263.79</ele>
        <time>2015-10-17T11:56:37Z</time>
      </trkpt>
      <trkpt lat="44.90092" lon="3.44321">
        <ele>1264.27</ele>
        <time>2015-10-17T11:56:49Z</time>
      </trkpt>
      <trkpt lat="44.90075" lon="3.4431">
        <ele>1264.27</ele>
        <time>2015-10-17T11:57:05Z</time>
      </trkpt>
      <trkpt lat="44.9006" lon="3.443">
        <ele>1264.27</ele>
        <time>2015-10-17T11:57:21Z</time>
      </trkpt>
      <trkpt lat="44.90047" lon="3.44289">
        <ele>1264.75</ele>
        <time>2015-10-17T11:57:36Z</time>
      </trkpt>
      <trkpt lat="44.90035" lon="3.44281">
        <ele>1264.75</ele>
        <time>2015-10-17T11:57:51Z</time>
      </trkpt>
      <trkpt lat="44.90021" lon="3.4427">
        <ele>1265.71</ele>
        <time>2015-10-17T11:58:08Z</time>
      </trkpt>
      <trkpt lat="44.90007" lon="3.44255">
        <ele>1265.23</ele>
        <time>2015-10-17T11:58:26Z</time>
      </trkpt>
      <trkpt lat="44.89994" lon="3.44245">
        <ele>1265.23</ele>
        <time>2015-10-17T11:58:42Z</time>
      </trkpt>
      <trkpt lat="44.89981" lon="3.44234">
        <ele>1265.23</ele>
        <time>2015-10-17T11:58:58Z</time>
      </trkpt>
      <trkpt lat="44.89967" lon="3.44223">
        <ele>1264.75</ele>
        <time>2015-10-17T11:59:15Z</time>
      </trkpt>
      <trkpt lat="44.89958" lon="3.44212">
        <ele>1263.79</ele>
        <time>2015-10-17T11:59:27Z</time>
      </trkpt>
      <trkpt lat="44.89952" lon="3.44206">
        <ele>1263.31</ele>
        <time>2015-10-17T11:59:40Z</time>
      </trkpt>
      <trkpt lat="44.89946" lon="3.44202">
        <ele>1263.31</ele>
        <time>2015-10-17T12:00:00Z</time>
      </trkpt>
      <trkpt lat="44.89943" lon="3.44198">
        <ele>1263.31</ele>
        <time>2015-10-17T12:00:14Z</time>
      </trkpt>
      <trkpt lat="44.89939" lon="3.44192">
        <ele>1262.83</ele>
        <time>2015-10-17T12:00:40Z</time>
      </trkpt>
      <trkpt lat="44.89936" lon="3.44187">
        <ele>1262.83</ele>
        <time>2015-10-17T12:00:57Z</time>
      </trkpt>
      <trkpt lat="44.89929" lon="3.44182">
        <ele>1262.35</ele>
        <time>2015-10-17T12:01:13Z</time>
      </trkpt>
      <trkpt lat="44.89917" lon="3.44171">
        <ele>1261.87</ele>
        <time>2015-10-17T12:01:28Z</time>
      </trkpt>
      <trkpt lat="44.89904" lon="3.44163">
        <ele>1261.87</ele>
        <time>2015-10-17T12:01:45Z</time>
      </trkpt>
      <trkpt lat="44.89887" lon="3.44154">
        <ele>1260.91</ele>
        <time>2015-10-17T12:02:03Z</time>
      </trkpt>
      <trkpt lat="44.89877" lon="3.44151">
        <ele>1259.94</ele>
        <time>2015-10-17T12:02:21Z</time>
      </trkpt>
      <trkpt lat="44.89874" lon="3.44153">
        <ele>1259.94</ele>
        <time>2015-10-17T12:02:50Z</time>
      </trkpt>
      <trkpt lat="44.89872" lon="3.44149">
        <ele>1259.46</ele>
        <time>2015-10-17T12:03:05Z</time>
      </trkpt>
      <trkpt lat="44.89858" lon="3.44143">
        <ele>1258.5</ele>
        <time>2015-10-17T12:03:25Z</time>
      </trkpt>
      <trkpt lat="44.89848" lon="3.4414">
        <ele>1257.54</ele>
        <time>2015-10-17T12:03:37Z</time>
      </trkpt>
      <trkpt lat="44.89831" lon="3.44138">
        <ele>1256.1</ele>
        <time>2015-10-17T12:03:55Z</time>
      </trkpt>
      <trkpt lat="44.89811" lon="3.44134">
        <ele>1254.66</ele>
        <time>2015-10-17T12:04:13Z</time>
      </trkpt>
      <trkpt lat="44.89791" lon="3.44139">
        <ele>1252.74</ele>
        <time>2015-10-17T12:04:33Z</time>
      </trkpt>
      <trkpt lat="44.89787" lon="3.44143">
        <ele>1252.74</ele>
        <time>2015-10-17T12:04:50Z</time>
      </trkpt>
      <trkpt lat="44.89782" lon="3.44145">
        <ele>1252.25</ele>
        <time>2015-10-17T12:05:09Z</time>
      </trkpt>
      <trkpt lat="44.89774" lon="3.44146">
        <ele>1251.77</ele>
        <time>2015-10-17T12:05:26Z</time>
      </trkpt>
      <trkpt lat="44.89767" lon="3.44147">
        <ele>1251.29</ele>
        <time>2015-10-17T12:05:43Z</time>
      </trkpt>
      <trkpt lat="44.89761" lon="3.44148">
        <ele>1250.81</ele>
        <time>2015-10-17T12:05:51Z</time>
      </trkpt>
      <trkpt lat="44.89744" lon="3.44149">
        <ele>1249.85</ele>
        <time>2015-10-17T12:06:09Z</time>
      </trkpt>
      <trkpt lat="44.89725" lon="3.44152">
        <ele>1249.37</ele>
        <time>2015-10-17T12:06:27Z</time>
      </trkpt>
      <trkpt lat="44.89716" lon="3.44156">
        <ele>1248.89</ele>
        <time>2015-10-17T12:06:37Z</time>
      </trkpt>
      <trkpt lat="44.89698" lon="3.4417">
        <ele>1248.41</ele>
        <time>2015-10-17T12:06:56Z</time>
      </trkpt>
      <trkpt lat="44.89691" lon="3.44178">
        <ele>1247.93</ele>
        <time>2015-10-17T12:07:10Z</time>
      </trkpt>
      <trkpt lat="44.89686" lon="3.4418">
        <ele>1247.93</ele>
        <time>2015-10-17T12:07:30Z</time>
      </trkpt>
      <trkpt lat="44.8968" lon="3.44182">
        <ele>1247.93</ele>
        <time>2015-10-17T12:07:49Z</time>
      </trkpt>
      <trkpt lat="44.89675" lon="3.44191">
        <ele>1247.93</ele>
        <time>2015-10-17T12:08:06Z</time>
      </trkpt>
      <trkpt lat="44.89664" lon="3.44207">
        <ele>1249.37</ele>
        <time>2015-10-17T12:08:22Z</time>
      </trkpt>
      <trkpt lat="44.89658" lon="3.44227">
        <ele>1250.33</ele>
        <time>2015-10-17T12:08:37Z</time>
      </trkpt>
      <trkpt lat="44.89659" lon="3.4423">
        <ele>1250.81</ele>
        <time>2015-10-17T12:08:59Z</time>
      </trkpt>
      <trkpt lat="44.89655" lon="3.44245">
        <ele>1250.81</ele>
        <time>2015-10-17T12:09:13Z</time>
      </trkpt>
      <trkpt lat="44.89662" lon="3.44273">
        <ele>1251.29</ele>
        <time>2015-10-17T12:09:32Z</time>
      </trkpt>
      <trkpt lat="44.89671" lon="3.44284">
        <ele>1251.77</ele>
        <time>2015-10-17T12:09:43Z</time>
      </trkpt>
      <trkpt lat="44.8968" lon="3.44302">
        <ele>1252.25</ele>
        <time>2015-10-17T12:09:59Z</time>
      </trkpt>
      <trkpt lat="44.89686" lon="3.44311">
        <ele>1252.25</ele>
        <time>2015-10-17T12:10:14Z</time>
      </trkpt>
      <trkpt lat="44.89692" lon="3.44323">
        <ele>1252.25</ele>
        <time>2015-10-17T12:10:33Z</time>
      </trkpt>
      <trkpt lat="44.89701" lon="3.44344">
        <ele>1253.22</ele>
        <time>2015-10-17T12:10:50Z</time>
      </trkpt>
      <trkpt lat="44.89709" lon="3.44368">
        <ele>1253.7</ele>
        <time>2015-10-17T12:11:05Z</time>
      </trkpt>
      <trkpt lat="44.89721" lon="3.44393">
        <ele>1254.18</ele>
        <time>2015-10-17T12:11:24Z</time>
      </trkpt>
      <trkpt lat="44.89724" lon="3.444">
        <ele>1254.18</ele>
        <time>2015-10-17T12:11:29Z</time>
      </trkpt>
      <trkpt lat="44.89733" lon="3.44421">
        <ele>1254.18</ele>
        <time>2015-10-17T12:11:46Z</time>
      </trkpt>
      <trkpt lat="44.89738" lon="3.44432">
        <ele>1254.66</ele>
        <time>2015-10-17T12:11:55Z</time>
      </trkpt>
      <trkpt lat="44.8975" lon="3.44456">
        <ele>1254.18</ele>
        <time>2015-10-17T12:12:16Z</time>
      </trkpt>
      <trkpt lat="44.89758" lon="3.44483">
        <ele>1254.18</ele>
        <time>2015-10-17T12:12:34Z</time>
      </trkpt>
      <trkpt lat="44.89766" lon="3.44508">
        <ele>1254.18</ele>
        <time>2015-10-17T12:12:51Z</time>
      </trkpt>
      <trkpt lat="44.89778" lon="3.44528">
        <ele>1253.7</ele>
        <time>2015-10-17T12:13:08Z</time>
      </trkpt>
      <trkpt lat="44.89788" lon="3.44546">
        <ele>1251.77</ele>
        <time>2015-10-17T12:13:27Z</time>
      </trkpt>
      <trkpt lat="44.89791" lon="3.44557">
        <ele>1251.77</ele>
        <time>2015-10-17T12:13:46Z</time>
      </trkpt>
      <trkpt lat="44.89794" lon="3.44564">
        <ele>1251.29</ele>
        <time>2015-10-17T12:14:12Z</time>
      </trkpt>
      <trkpt lat="44.89797" lon="3.44574">
        <ele>1250.81</ele>
        <time>2015-10-17T12:14:27Z</time>
      </trkpt>
      <trkpt lat="44.89804" lon="3.4459">
        <ele>1250.33</ele>
        <time>2015-10-17T12:14:44Z</time>
      </trkpt>
      <trkpt lat="44.89806" lon="3.44599">
        <ele>1250.33</ele>
        <time>2015-10-17T12:14:59Z</time>
      </trkpt>
      <trkpt lat="44.89813" lon="3.44616">
        <ele>1249.85</ele>
        <time>2015-10-17T12:15:16Z</time>
      </trkpt>
      <trkpt lat="44.89822" lon="3.44638">
        <ele>1249.85</ele>
        <time>2015-10-17T12:15:33Z</time>
      </trkpt>
      <trkpt lat="44.89827" lon="3.44648">
        <ele>1249.37</ele>
        <time>2015-10-17T12:15:47Z</time>
      </trkpt>
      <trkpt lat="44.89829" lon="3.4466">
        <ele>1249.37</ele>
        <time>2015-10-17T12:16:05Z</time>
      </trkpt>
      <trkpt lat="44.89834" lon="3.44674">
        <ele>1248.89</ele>
        <time>2015-10-17T12:16:20Z</time>
      </trkpt>
      <trkpt lat="44.8984" lon="3.447">
        <ele>1248.89</ele>
        <time>2015-10-17T12:16:37Z</time>
      </trkpt>
      <trkpt lat="44.89842" lon="3.44705">
        <ele>1250.81</ele>
        <time>2015-10-17T12:16:51Z</time>
      </trkpt>
      <trkpt lat="44.8984" lon="3.44706">
        <ele>1250.81</ele>
        <time>2015-10-17T12:17:18Z</time>
      </trkpt>
      <trkpt lat="44.89845" lon="3.44714">
        <ele>1250.33</ele>
        <time>2015-10-17T12:17:41Z</time>
      </trkpt>
      <trkpt lat="44.89858" lon="3.44732">
        <ele>1249.37</ele>
        <time>2015-10-17T12:18:02Z</time>
      </trkpt>
      <trkpt lat="44.89878" lon="3.44748">
        <ele>1246.97</ele>
        <time>2015-10-17T12:18:24Z</time>
      </trkpt>
      <trkpt lat="44.89893" lon="3.44769">
        <ele>1245.04</ele>
        <time>2015-10-17T12:18:47Z</time>
      </trkpt>
      <trkpt lat="44.89902" lon="3.44787">
        <ele>1243.12</ele>
        <time>2015-10-17T12:19:06Z</time>
      </trkpt>
      <trkpt lat="44.8991" lon="3.44814">
        <ele>1241.2</ele>
        <time>2015-10-17T12:19:27Z</time>
      </trkpt>
      <trkpt lat="44.89912" lon="3.4484">
        <ele>1239.28</ele>
        <time>2015-10-17T12:19:47Z</time>
      </trkpt>
      <trkpt lat="44.89914" lon="3.44865">
        <ele>1238.32</ele>
        <time>2015-10-17T12:20:05Z</time>
      </trkpt>
      <trkpt lat="44.8991" lon="3.4489">
        <ele>1235.91</ele>
        <time>2015-10-17T12:20:25Z</time>
      </trkpt>
      <trkpt lat="44.89898" lon="3.44912">
        <ele>1233.99</ele>
        <time>2015-10-17T12:20:46Z</time>
      </trkpt>
      <trkpt lat="44.89887" lon="3.44931">
        <ele>1232.07</ele>
        <time>2015-10-17T12:21:07Z</time>
      </trkpt>
      <trkpt lat="44.8988" lon="3.44953">
        <ele>1229.66</ele>
        <time>2015-10-17T12:21:26Z</time>
      </trkpt>
      <trkpt lat="44.89878" lon="3.44978">
        <ele>1227.74</ele>
        <time>2015-10-17T12:21:46Z</time>
      </trkpt>
      <trkpt lat="44.8988" lon="3.45001">
        <ele>1225.82</ele>
        <time>2015-10-17T12:22:04Z</time>
      </trkpt>
      <trkpt lat="44.89888" lon="3.45028">
        <ele>1224.38</ele>
        <time>2015-10-17T12:22:24Z</time>
      </trkpt>
      <trkpt lat="44.899" lon="3.45055">
        <ele>1223.42</ele>
        <time>2015-10-17T12:22:47Z</time>
      </trkpt>
      <trkpt lat="44.8991" lon="3.45081">
        <ele>1223.42</ele>
        <time>2015-10-17T12:23:08Z</time>
      </trkpt>
      <trkpt lat="44.89929" lon="3.45105">
        <ele>1223.42</ele>
        <time>2015-10-17T12:23:32Z</time>
      </trkpt>
      <trkpt lat="44.89941" lon="3.45117">
        <ele>1223.42</ele>
        <time>2015-10-17T12:23:52Z</time>
      </trkpt>
      <trkpt lat="44.89958" lon="3.45136">
        <ele>1223.42</ele>
        <time>2015-10-17T12:24:12Z</time>
      </trkpt>
      <trkpt lat="44.89968" lon="3.45147">
        <ele>1223.42</ele>
        <time>2015-10-17T12:24:31Z</time>
      </trkpt>
      <trkpt lat="44.89966" lon="3.45148">
        <ele>1223.42</ele>
        <time>2015-10-17T12:25:00Z</time>
      </trkpt>
      <trkpt lat="44.89964" lon="3.45149">
        <ele>1223.42</ele>
        <time>2015-10-17T12:25:35Z</time>
      </trkpt>
      <trkpt lat="44.89964" lon="3.45152">
        <ele>1223.42</ele>
        <time>2015-10-17T12:26:17Z</time>
      </trkpt>
      <trkpt lat="44.89968" lon="3.45155">
        <ele>1223.42</ele>
        <time>2015-10-17T12:26:35Z</time>
      </trkpt>
      <trkpt lat="44.89974" lon="3.45164">
        <ele>1223.42</ele>
        <time>2015-10-17T12:27:01Z</time>
      </trkpt>
      <trkpt lat="44.89982" lon="3.45191">
        <ele>1225.82</ele>
        <time>2015-10-17T12:27:25Z</time>
      </trkpt>
      <trkpt lat="44.89993" lon="3.45207">
        <ele>1225.82</ele>
        <time>2015-10-17T12:27:44Z</time>
      </trkpt>
      <trkpt lat="44.90012" lon="3.4522">
        <ele>1226.78</ele>
        <time>2015-10-17T12:28:05Z</time>
      </trkpt>
      <trkpt lat="44.90034" lon="3.45236">
        <ele>1226.78</ele>
        <time>2015-10-17T12:28:27Z</time>
      </trkpt>
      <trkpt lat="44.90052" lon="3.45257">
        <ele>1226.78</ele>
        <time>2015-10-17T12:28:49Z</time>
      </trkpt>
      <trkpt lat="44.90069" lon="3.45278">
        <ele>1226.78</ele>
        <time>2015-10-17T12:29:12Z</time>
      </trkpt>
      <trkpt lat="44.90087" lon="3.45302">
        <ele>1226.78</ele>
        <time>2015-10-17T12:29:37Z</time>
      </trkpt>
      <trkpt lat="44.90104" lon="3.45321">
        <ele>1226.78</ele>
        <time>2015-10-17T12:30:01Z</time>
      </trkpt>
      <trkpt lat="44.90121" lon="3.45336">
        <ele>1226.78</ele>
        <time>2015-10-17T12:30:20Z</time>
      </trkpt>
      <trkpt lat="44.90145" lon="3.45352">
        <ele>1224.86</ele>
        <time>2015-10-17T12:30:43Z</time>
      </trkpt>
      <trkpt lat="44.90165" lon="3.45368">
        <ele>1224.86</ele>
        <time>2015-10-17T12:31:04Z</time>
      </trkpt>
      <trkpt lat="44.90183" lon="3.45382">
        <ele>1222.45</ele>
        <time>2015-10-17T12:31:25Z</time>
      </trkpt>
      <trkpt lat="44.90206" lon="3.45404">
        <ele>1221.49</ele>
        <time>2015-10-17T12:31:48Z</time>
      </trkpt>
      <trkpt lat="44.90224" lon="3.45422">
        <ele>1221.49</ele>
        <time>2015-10-17T12:32:11Z</time>
      </trkpt>
      <trkpt lat="44.90239" lon="3.45442">
        <ele>1223.42</ele>
        <time>2015-10-17T12:32:34Z</time>
      </trkpt>
      <trkpt lat="44.90261" lon="3.45462">
        <ele>1224.86</ele>
        <time>2015-10-17T12:33:00Z</time>
      </trkpt>
      <trkpt lat="44.90268" lon="3.45465">
        <ele>1225.34</ele>
        <time>2015-10-17T12:33:07Z</time>
      </trkpt>
      <trkpt lat="44.90296" lon="3.45474">
        <ele>1226.78</ele>
        <time>2015-10-17T12:33:29Z</time>
      </trkpt>
      <trkpt lat="44.903" lon="3.45475">
        <ele>1226.78</ele>
        <time>2015-10-17T12:33:33Z</time>
      </trkpt>
      <trkpt lat="44.90307" lon="3.45474">
        <ele>1227.26</ele>
        <time>2015-10-17T12:33:50Z</time>
      </trkpt>
      <trkpt lat="44.90309" lon="3.45472">
        <ele>1227.26</ele>
        <time>2015-10-17T12:34:09Z</time>
      </trkpt>
      <trkpt lat="44.90309" lon="3.45471">
        <ele>1227.74</ele>
        <time>2015-10-17T12:34:43Z</time>
      </trkpt>
      <trkpt lat="44.90309" lon="3.45473">
        <ele>1227.74</ele>
        <time>2015-10-17T12:35:08Z</time>
      </trkpt>
      <trkpt lat="44.90312" lon="3.45473">
        <ele>1227.74</ele>
        <time>2015-10-17T12:35:41Z</time>
      </trkpt>
      <trkpt lat="44.90311" lon="3.45472">
        <ele>1227.74</ele>
        <time>2015-10-17T12:36:14Z</time>
      </trkpt>
      <trkpt lat="44.90312" lon="3.45475">
        <ele>1227.74</ele>
        <time>2015-10-17T12:36:44Z</time>
      </trkpt>
      <trkpt lat="44.9031" lon="3.45472">
        <ele>1228.22</ele>
        <time>2015-10-17T12:37:02Z</time>
      </trkpt>
      <trkpt lat="44.90309" lon="3.45472">
        <ele>1228.22</ele>
        <time>2015-10-17T12:37:23Z</time>
      </trkpt>
      <trkpt lat="44.9031" lon="3.45473">
        <ele>1228.22</ele>
        <time>2015-10-17T12:37:53Z</time>
      </trkpt>
      <trkpt lat="44.90312" lon="3.45474">
        <ele>1228.22</ele>
        <time>2015-10-17T12:38:22Z</time>
      </trkpt>
      <trkpt lat="44.90312" lon="3.45472">
        <ele>1228.22</ele>
        <time>2015-10-17T12:38:52Z</time>
      </trkpt>
      <trkpt lat="44.90314" lon="3.45473">
        <ele>1228.22</ele>
        <time>2015-10-17T12:39:29Z</time>
      </trkpt>
      <trkpt lat="44.90313" lon="3.45472">
        <ele>1228.22</ele>
        <time>2015-10-17T12:40:04Z</time>
      </trkpt>
      <trkpt lat="44.90311" lon="3.4547">
        <ele>1228.22</ele>
        <time>2015-10-17T12:40:37Z</time>
      </trkpt>
      <trkpt lat="44.90325" lon="3.4547">
        <ele>1228.22</ele>
        <time>2015-10-17T12:40:53Z</time>
      </trkpt>
      <trkpt lat="44.90345" lon="3.45469">
        <ele>1228.22</ele>
        <time>2015-10-17T12:41:15Z</time>
      </trkpt>
      <trkpt lat="44.90367" lon="3.45474">
        <ele>1228.7</ele>
        <time>2015-10-17T12:41:35Z</time>
      </trkpt>
      <trkpt lat="44.90381" lon="3.45483">
        <ele>1229.66</ele>
        <time>2015-10-17T12:41:52Z</time>
      </trkpt>
      <trkpt lat="44.90405" lon="3.45501">
        <ele>1230.14</ele>
        <time>2015-10-17T12:42:18Z</time>
      </trkpt>
      <trkpt lat="44.90423" lon="3.45514">
        <ele>1230.14</ele>
        <time>2015-10-17T12:42:40Z</time>
      </trkpt>
      <trkpt lat="44.90436" lon="3.45523">
        <ele>1228.7</ele>
        <time>2015-10-17T12:42:55Z</time>
      </trkpt>
      <trkpt lat="44.90456" lon="3.4554">
        <ele>1227.74</ele>
        <time>2015-10-17T12:43:19Z</time>
      </trkpt>
      <trkpt lat="44.90472" lon="3.45555">
        <ele>1226.3</ele>
        <time>2015-10-17T12:43:40Z</time>
      </trkpt>
      <trkpt lat="44.9049" lon="3.45582">
        <ele>1225.34</ele>
        <time>2015-10-17T12:44:04Z</time>
      </trkpt>
      <trkpt lat="44.90496" lon="3.45615">
        <ele>1224.86</ele>
        <time>2015-10-17T12:44:27Z</time>
      </trkpt>
      <trkpt lat="44.90499" lon="3.45646">
        <ele>1224.38</ele>
        <time>2015-10-17T12:44:49Z</time>
      </trkpt>
      <trkpt lat="44.9051" lon="3.45677">
        <ele>1222.93</ele>
        <time>2015-10-17T12:45:11Z</time>
      </trkpt>
      <trkpt lat="44.90524" lon="3.45697">
        <ele>1221.97</ele>
        <time>2015-10-17T12:45:33Z</time>
      </trkpt>
      <trkpt lat="44.90539" lon="3.45725">
        <ele>1219.57</ele>
        <time>2015-10-17T12:45:56Z</time>
      </trkpt>
      <trkpt lat="44.90552" lon="3.45739">
        <ele>1218.61</ele>
        <time>2015-10-17T12:46:18Z</time>
      </trkpt>
      <trkpt lat="44.90567" lon="3.45764">
        <ele>1217.65</ele>
        <time>2015-10-17T12:46:42Z</time>
      </trkpt>
      <trkpt lat="44.9058" lon="3.4579">
        <ele>1216.21</ele>
        <time>2015-10-17T12:47:05Z</time>
      </trkpt>
      <trkpt lat="44.90593" lon="3.45822">
        <ele>1215.24</ele>
        <time>2015-10-17T12:47:28Z</time>
      </trkpt>
      <trkpt lat="44.90597" lon="3.45828">
        <ele>1214.28</ele>
        <time>2015-10-17T12:47:49Z</time>
      </trkpt>
      <trkpt lat="44.90599" lon="3.45838">
        <ele>1213.8</ele>
        <time>2015-10-17T12:48:18Z</time>
      </trkpt>
      <trkpt lat="44.90607" lon="3.45867">
        <ele>1212.36</ele>
        <time>2015-10-17T12:48:43Z</time>
      </trkpt>
      <trkpt lat="44.90612" lon="3.45881">
        <ele>1211.4</ele>
        <time>2015-10-17T12:49:01Z</time>
      </trkpt>
      <trkpt lat="44.90617" lon="3.45891">
        <ele>1210.92</ele>
        <time>2015-10-17T12:49:21Z</time>
      </trkpt>
      <trkpt lat="44.9063" lon="3.45922">
        <ele>1209</ele>
        <time>2015-10-17T12:49:44Z</time>
      </trkpt>
      <trkpt lat="44.90641" lon="3.4595">
        <ele>1206.59</ele>
        <time>2015-10-17T12:50:06Z</time>
      </trkpt>
      <trkpt lat="44.90652" lon="3.45977">
        <ele>1204.67</ele>
        <time>2015-10-17T12:50:29Z</time>
      </trkpt>
      <trkpt lat="44.90654" lon="3.45989">
        <ele>1204.19</ele>
        <time>2015-10-17T12:50:37Z</time>
      </trkpt>
      <trkpt lat="44.90664" lon="3.46023">
        <ele>1203.23</ele>
        <time>2015-10-17T12:51:00Z</time>
      </trkpt>
      <trkpt lat="44.90668" lon="3.46036">
        <ele>1202.75</ele>
        <time>2015-10-17T12:51:10Z</time>
      </trkpt>
      <trkpt lat="44.90671" lon="3.46073">
        <ele>1202.27</ele>
        <time>2015-10-17T12:51:32Z</time>
      </trkpt>
      <trkpt lat="44.90676" lon="3.46102">
        <ele>1202.27</ele>
        <time>2015-10-17T12:51:52Z</time>
      </trkpt>
      <trkpt lat="44.90688" lon="3.46133">
        <ele>1202.27</ele>
        <time>2015-10-17T12:52:15Z</time>
      </trkpt>
      <trkpt lat="44.90703" lon="3.46162">
        <ele>1202.27</ele>
        <time>2015-10-17T12:52:37Z</time>
      </trkpt>
      <trkpt lat="44.90712" lon="3.46182">
        <ele>1203.71</ele>
        <time>2015-10-17T12:52:52Z</time>
      </trkpt>
      <trkpt lat="44.90725" lon="3.4619">
        <ele>1203.71</ele>
        <time>2015-10-17T12:53:10Z</time>
      </trkpt>
      <trkpt lat="44.90725" lon="3.4619">
        <ele>1204.19</ele>
        <time>2015-10-17T12:53:34Z</time>
      </trkpt>
      <trkpt lat="44.90726" lon="3.46189">
        <ele>1204.19</ele>
        <time>2015-10-17T12:54:03Z</time>
      </trkpt>
      <trkpt lat="44.90743" lon="3.46201">
        <ele>1204.19</ele>
        <time>2015-10-17T12:54:23Z</time>
      </trkpt>
      <trkpt lat="44.90764" lon="3.46208">
        <ele>1204.19</ele>
        <time>2015-10-17T12:54:45Z</time>
      </trkpt>
      <trkpt lat="44.90784" lon="3.46219">
        <ele>1204.19</ele>
        <time>2015-10-17T12:55:05Z</time>
      </trkpt>
      <trkpt lat="44.90786" lon="3.4622">
        <ele>1204.19</ele>
        <time>2015-10-17T12:55:08Z</time>
      </trkpt>
      <trkpt lat="44.90813" lon="3.46239">
        <ele>1203.23</ele>
        <time>2015-10-17T12:55:33Z</time>
      </trkpt>
      <trkpt lat="44.90838" lon="3.46251">
        <ele>1203.23</ele>
        <time>2015-10-17T12:55:57Z</time>
      </trkpt>
      <trkpt lat="44.90861" lon="3.46257">
        <ele>1202.75</ele>
        <time>2015-10-17T12:56:22Z</time>
      </trkpt>
      <trkpt lat="44.90889" lon="3.46265">
        <ele>1204.67</ele>
        <time>2015-10-17T12:56:46Z</time>
      </trkpt>
      <trkpt lat="44.90908" lon="3.46271">
        <ele>1205.63</ele>
        <time>2015-10-17T12:57:05Z</time>
      </trkpt>
      <trkpt lat="44.90926" lon="3.46283">
        <ele>1205.63</ele>
        <time>2015-10-17T12:57:25Z</time>
      </trkpt>
      <trkpt lat="44.90949" lon="3.46296">
        <ele>1205.63</ele>
        <time>2015-10-17T12:57:49Z</time>
      </trkpt>
      <trkpt lat="44.90975" lon="3.46316">
        <ele>1205.63</ele>
        <time>2015-10-17T12:58:14Z</time>
      </trkpt>
      <trkpt lat="44.90985" lon="3.46327">
        <ele>1204.19</ele>
        <time>2015-10-17T12:58:24Z</time>
      </trkpt>
      <trkpt lat="44.90999" lon="3.46348">
        <ele>1202.75</ele>
        <time>2015-10-17T12:58:44Z</time>
      </trkpt>
      <trkpt lat="44.91018" lon="3.46373">
        <ele>1200.82</ele>
        <time>2015-10-17T12:59:10Z</time>
      </trkpt>
      <trkpt lat="44.91038" lon="3.46387">
        <ele>1199.38</ele>
        <time>2015-10-17T12:59:33Z</time>
      </trkpt>
      <trkpt lat="44.91057" lon="3.46391">
        <ele>1197.46</ele>
        <time>2015-10-17T12:59:54Z</time>
      </trkpt>
      <trkpt lat="44.91078" lon="3.46398">
        <ele>1196.02</ele>
        <time>2015-10-17T13:00:17Z</time>
      </trkpt>
      <trkpt lat="44.91102" lon="3.46403">
        <ele>1195.54</ele>
        <time>2015-10-17T13:00:39Z</time>
      </trkpt>
      <trkpt lat="44.91121" lon="3.46418">
        <ele>1194.58</ele>
        <time>2015-10-17T13:01:00Z</time>
      </trkpt>
      <trkpt lat="44.91125" lon="3.46415">
        <ele>1194.58</ele>
        <time>2015-10-17T13:01:05Z</time>
      </trkpt>
      <trkpt lat="44.9113" lon="3.46391">
        <ele>1194.58</ele>
        <time>2015-10-17T13:01:25Z</time>
      </trkpt>
      <trkpt lat="44.91133" lon="3.46382">
        <ele>1194.58</ele>
        <time>2015-10-17T13:01:45Z</time>
      </trkpt>
      <trkpt lat="44.91135" lon="3.46365">
        <ele>1195.06</ele>
        <time>2015-10-17T13:02:05Z</time>
      </trkpt>
      <trkpt lat="44.91139" lon="3.46331">
        <ele>1195.06</ele>
        <time>2015-10-17T13:02:29Z</time>
      </trkpt>
      <trkpt lat="44.91145" lon="3.46309">
        <ele>1195.06</ele>
        <time>2015-10-17T13:02:48Z</time>
      </trkpt>
      <trkpt lat="44.91148" lon="3.46299">
        <ele>1195.06</ele>
        <time>2015-10-17T13:03:08Z</time>
      </trkpt>
      <trkpt lat="44.9115" lon="3.46295">
        <ele>1195.06</ele>
        <time>2015-10-17T13:03:22Z</time>
      </trkpt>
      <trkpt lat="44.91158" lon="3.4628">
        <ele>1195.06</ele>
        <time>2015-10-17T13:03:40Z</time>
      </trkpt>
      <trkpt lat="44.9116" lon="3.46266">
        <ele>1194.09</ele>
        <time>2015-10-17T13:03:55Z</time>
      </trkpt>
      <trkpt lat="44.91165" lon="3.46236">
        <ele>1192.17</ele>
        <time>2015-10-17T13:04:18Z</time>
      </trkpt>
      <trkpt lat="44.91169" lon="3.46204">
        <ele>1190.73</ele>
        <time>2015-10-17T13:04:41Z</time>
      </trkpt>
      <trkpt lat="44.91172" lon="3.46173">
        <ele>1190.25</ele>
        <time>2015-10-17T13:05:04Z</time>
      </trkpt>
      <trkpt lat="44.91174" lon="3.46163">
        <ele>1188.81</ele>
        <time>2015-10-17T13:05:21Z</time>
      </trkpt>
      <trkpt lat="44.91175" lon="3.46129">
        <ele>1187.85</ele>
        <time>2015-10-17T13:05:45Z</time>
      </trkpt>
      <trkpt lat="44.91178" lon="3.46101">
        <ele>1185.92</ele>
        <time>2015-10-17T13:06:07Z</time>
      </trkpt>
      <trkpt lat="44.91181" lon="3.46066">
        <ele>1183.52</ele>
        <time>2015-10-17T13:06:34Z</time>
      </trkpt>
      <trkpt lat="44.9118" lon="3.46051">
        <ele>1182.08</ele>
        <time>2015-10-17T13:06:51Z</time>
      </trkpt>
      <trkpt lat="44.91179" lon="3.46024">
        <ele>1180.64</ele>
        <time>2015-10-17T13:07:13Z</time>
      </trkpt>
      <trkpt lat="44.91177" lon="3.46005">
        <ele>1179.19</ele>
        <time>2015-10-17T13:07:33Z</time>
      </trkpt>
      <trkpt lat="44.91172" lon="3.45977">
        <ele>1177.27</ele>
        <time>2015-10-17T13:07:58Z</time>
      </trkpt>
      <trkpt lat="44.91171" lon="3.45962">
        <ele>1176.31</ele>
        <time>2015-10-17T13:08:17Z</time>
      </trkpt>
      <trkpt lat="44.91169" lon="3.45938">
        <ele>1174.87</ele>
        <time>2015-10-17T13:08:37Z</time>
      </trkpt>
      <trkpt lat="44.9117" lon="3.45906">
        <ele>1173.43</ele>
        <time>2015-10-17T13:09:00Z</time>
      </trkpt>
      <trkpt lat="44.9117" lon="3.45882">
        <ele>1172.95</ele>
        <time>2015-10-17T13:09:21Z</time>
      </trkpt>
      <trkpt lat="44.91168" lon="3.4586">
        <ele>1172.47</ele>
        <time>2015-10-17T13:09:39Z</time>
      </trkpt>
      <trkpt lat="44.91162" lon="3.45823">
        <ele>1171.5</ele>
        <time>2015-10-17T13:10:03Z</time>
      </trkpt>
      <trkpt lat="44.91159" lon="3.45795">
        <ele>1171.5</ele>
        <time>2015-10-17T13:10:23Z</time>
      </trkpt>
      <trkpt lat="44.91159" lon="3.45766">
        <ele>1171.02</ele>
        <time>2015-10-17T13:10:43Z</time>
      </trkpt>
      <trkpt lat="44.91154" lon="3.45736">
        <ele>1171.02</ele>
        <time>2015-10-17T13:11:06Z</time>
      </trkpt>
      <trkpt lat="44.91146" lon="3.45715">
        <ele>1170.54</ele>
        <time>2015-10-17T13:11:28Z</time>
      </trkpt>
      <trkpt lat="44.9114" lon="3.45697">
        <ele>1170.06</ele>
        <time>2015-10-17T13:11:48Z</time>
      </trkpt>
      <trkpt lat="44.91138" lon="3.45663">
        <ele>1168.62</ele>
        <time>2015-10-17T13:12:11Z</time>
      </trkpt>
      <trkpt lat="44.91145" lon="3.45627">
        <ele>1167.66</ele>
        <time>2015-10-17T13:12:38Z</time>
      </trkpt>
      <trkpt lat="44.91159" lon="3.45599">
        <ele>1164.29</ele>
        <time>2015-10-17T13:13:05Z</time>
      </trkpt>
      <trkpt lat="44.91162" lon="3.45592">
        <ele>1164.29</ele>
        <time>2015-10-17T13:13:25Z</time>
      </trkpt>
      <trkpt lat="44.91177" lon="3.45582">
        <ele>1162.37</ele>
        <time>2015-10-17T13:13:45Z</time>
      </trkpt>
      <trkpt lat="44.91181" lon="3.45578">
        <ele>1162.37</ele>
        <time>2015-10-17T13:14:04Z</time>
      </trkpt>
      <trkpt lat="44.91193" lon="3.45572">
        <ele>1161.41</ele>
        <time>2015-10-17T13:14:25Z</time>
      </trkpt>
      <trkpt lat="44.91202" lon="3.45564">
        <ele>1160.45</ele>
        <time>2015-10-17T13:14:45Z</time>
      </trkpt>
      <trkpt lat="44.91213" lon="3.45545">
        <ele>1159.97</ele>
        <time>2015-10-17T13:15:04Z</time>
      </trkpt>
      <trkpt lat="44.91213" lon="3.45541">
        <ele>1159.97</ele>
        <time>2015-10-17T13:15:25Z</time>
      </trkpt>
      <trkpt lat="44.91219" lon="3.45526">
        <ele>1159.97</ele>
        <time>2015-10-17T13:15:46Z</time>
      </trkpt>
      <trkpt lat="44.91221" lon="3.45517">
        <ele>1159.97</ele>
        <time>2015-10-17T13:16:02Z</time>
      </trkpt>
      <trkpt lat="44.9122" lon="3.45517">
        <ele>1159.97</ele>
        <time>2015-10-17T13:16:27Z</time>
      </trkpt>
      <trkpt lat="44.91219" lon="3.45508">
        <ele>1159.97</ele>
        <time>2015-10-17T13:16:46Z</time>
      </trkpt>
      <trkpt lat="44.9122" lon="3.45506">
        <ele>1159.97</ele>
        <time>2015-10-17T13:17:20Z</time>
      </trkpt>
      <trkpt lat="44.91217" lon="3.45496">
        <ele>1161.41</ele>
        <time>2015-10-17T13:17:38Z</time>
      </trkpt>
      <trkpt lat="44.91217" lon="3.45486">
        <ele>1161.41</ele>
        <time>2015-10-17T13:17:59Z</time>
      </trkpt>
      <trkpt lat="44.91217" lon="3.45485">
        <ele>1161.41</ele>
        <time>2015-10-17T13:18:36Z</time>
      </trkpt>
      <trkpt lat="44.91218" lon="3.45481">
        <ele>1161.89</ele>
        <time>2015-10-17T13:19:00Z</time>
      </trkpt>
      <trkpt lat="44.91215" lon="3.45472">
        <ele>1162.37</ele>
        <time>2015-10-17T13:19:18Z</time>
      </trkpt>
      <trkpt lat="44.91213" lon="3.45454">
        <ele>1163.81</ele>
        <time>2015-10-17T13:19:37Z</time>
      </trkpt>
      <trkpt lat="44.91213" lon="3.45449">
        <ele>1164.29</ele>
        <time>2015-10-17T13:20:02Z</time>
      </trkpt>
      <trkpt lat="44.91215" lon="3.45446">
        <ele>1165.26</ele>
        <time>2015-10-17T13:20:19Z</time>
      </trkpt>
      <trkpt lat="44.91215" lon="3.45446">
        <ele>1165.74</ele>
        <time>2015-10-17T13:20:41Z</time>
      </trkpt>
      <trkpt lat="44.91216" lon="3.45445">
        <ele>1166.22</ele>
        <time>2015-10-17T13:21:01Z</time>
      </trkpt>
    </trkseg>
  </trk>
</gpx>